Time,TemperatureF,DewpointF,PressureIn,WindDirection,WindDirectionDegrees,WindSpeedMPH,WindSpeedGustMPH,Humidity,HourlyPrecipIn,Conditions,Clouds,dailyrainin,SoftwareType,DateUTC
2013-04-10 00:00:00,66.2,24.0,29.91,SSW,202,3.8,3.8,20,0.00,,---,0.00,VWS V14.00,2013-04-10 04:00:00,
2013-04-10 00:02:00,65.5,23.4,29.91,SSW,202,2.9,5.8,20,0.00,,---,0.00,VWS V14.00,2013-04-10 04:02:00,
2013-04-10 00:05:00,64.8,22.8,29.91,SSW,202,2.7,5.6,20,0.00,,---,0.00,VWS V14.00,2013-04-10 04:05:00,
2013-04-10 00:06:00,64.4,22.5,29.91,SSW,202,2.9,3.6,20,0.00,,---,0.00,VWS V14.00,2013-04-10 04:06:00,
2013-04-10 00:07:00,64.4,22.5,29.91,SSW,202,0.9,2.9,20,0.00,,---,0.00,VWS V14.00,2013-04-10 04:07:00,
2013-04-10 00:13:00,63.9,23.2,29.91,SSW,202,3.8,5.4,21,0.00,,---,0.00,VWS V14.00,2013-04-10 04:13:00,
2013-04-10 00:14:00,63.7,23.0,29.91,SSW,202,2.0,3.8,21,0.00,,---,0.00,VWS V14.00,2013-04-10 04:14:00,
2013-04-10 00:16:00,63.5,25.1,29.91,SSW,202,2.7,3.4,23,0.00,,---,0.00,VWS V14.00,2013-04-10 04:16:00,
2013-04-10 00:19:00,63.3,24.9,29.91,SSW,202,2.5,4.0,23,0.00,,---,0.00,VWS V14.00,2013-04-10 04:19:00,
2013-04-10 00:21:00,63.1,24.8,29.91,SSW,202,3.1,4.0,23,0.00,,---,0.00,VWS V14.00,2013-04-10 04:21:00,
2013-04-10 00:22:00,63.1,24.8,29.91,SSW,202,1.6,4.0,23,0.00,,---,0.00,VWS V14.00,2013-04-10 04:22:00,
2013-04-10 00:24:00,63.1,24.8,29.91,SSW,202,0.9,3.6,23,0.00,,---,0.00,VWS V14.00,2013-04-10 04:24:00,
2013-04-10 00:26:00,63.0,24.6,29.91,SSW,202,2.5,4.3,23,0.00,,---,0.00,VWS V14.00,2013-04-10 04:26:00,
2013-04-10 00:28:00,63.0,25.6,29.91,SSW,202,2.5,3.4,24,0.00,,---,0.00,VWS V14.00,2013-04-10 04:28:00,
2013-04-10 00:33:00,63.0,25.6,29.91,SSW,202,2.9,2.9,24,0.00,,---,0.00,VWS V14.00,2013-04-10 04:33:00,
2013-04-10 00:34:00,63.1,25.8,29.91,SSW,202,2.9,3.8,24,0.00,,---,0.00,VWS V14.00,2013-04-10 04:34:00,
2013-04-10 00:36:00,63.3,25.9,29.91,SSW,202,3.4,4.7,24,0.00,,---,0.00,VWS V14.00,2013-04-10 04:36:00,
2013-04-10 00:38:00,63.5,26.1,29.91,SSW,202,3.8,3.8,24,0.00,,---,0.00,VWS V14.00,2013-04-10 04:38:00,
2013-04-10 00:39:00,63.5,26.1,29.91,SSW,202,2.9,3.8,24,0.00,,---,0.00,VWS V14.00,2013-04-10 04:39:00,
2013-04-10 00:43:00,64.0,26.5,29.91,SW,225,2.2,4.0,24,0.00,,---,0.00,VWS V14.00,2013-04-10 04:43:00,
2013-04-10 00:44:00,64.0,26.5,29.91,WSW,248,1.3,4.9,24,0.00,,---,0.00,VWS V14.00,2013-04-10 04:44:00,
2013-04-10 00:46:00,64.6,26.0,29.91,SW,225,3.8,4.9,23,0.00,,---,0.00,VWS V14.00,2013-04-10 04:46:00,
2013-04-10 00:48:00,64.8,26.1,29.91,SSW,202,3.8,3.8,23,0.00,,---,0.00,VWS V14.00,2013-04-10 04:48:00,
2013-04-10 00:49:00,64.9,26.3,29.91,NE,45,2.2,3.8,23,0.00,,---,0.00,VWS V14.00,2013-04-10 04:49:00,
2013-04-10 00:52:00,65.3,26.6,29.91,SW,225,4.3,4.3,23,0.00,,---,0.00,VWS V14.00,2013-04-10 04:52:00,
2013-04-10 00:55:00,65.3,26.6,29.91,SSW,202,2.0,4.0,23,0.00,,---,0.00,VWS V14.00,2013-04-10 04:55:00,
2013-04-10 00:56:00,65.3,26.6,29.91,SSW,202,4.5,4.5,23,0.00,,---,0.00,VWS V14.00,2013-04-10 04:56:00,
2013-04-10 00:58:00,65.5,26.7,29.91,SSW,202,3.1,3.1,23,0.00,,---,0.00,VWS V14.00,2013-04-10 04:58:00,
2013-04-10 01:00:00,65.7,26.9,29.91,SW,225,4.3,4.9,23,0.00,,---,0.00,VWS V14.00,2013-04-10 05:00:00,
2013-04-10 01:02:00,65.8,27.0,29.91,SSW,202,2.9,4.7,23,0.00,,---,0.00,VWS V14.00,2013-04-10 05:02:00,
2013-04-10 01:04:00,65.8,27.0,29.91,SW,225,2.5,4.9,23,0.00,,---,0.00,VWS V14.00,2013-04-10 05:04:00,
2013-04-10 01:07:00,65.8,27.0,29.91,SSW,202,0.0,3.4,23,0.00,,---,0.00,VWS V14.00,2013-04-10 05:07:00,
2013-04-10 01:10:00,65.8,23.7,29.91,SSW,202,2.0,3.8,20,0.00,,---,0.00,VWS V14.00,2013-04-10 05:10:00,
2013-04-10 01:14:00,65.8,23.7,29.91,SSW,202,3.8,4.3,20,0.00,,---,0.00,VWS V14.00,2013-04-10 05:14:00,
2013-04-10 01:17:00,65.8,23.7,29.91,SSW,202,2.7,4.0,20,0.00,,---,0.00,VWS V14.00,2013-04-10 05:17:00,
2013-04-10 01:20:00,65.5,23.4,29.88,SSW,202,2.7,3.6,20,0.00,,---,0.00,VWS V14.00,2013-04-10 05:20:00,
2013-04-10 01:24:00,65.3,23.2,29.88,South,180,3.8,3.8,20,0.00,,---,0.00,VWS V14.00,2013-04-10 05:24:00,
2013-04-10 01:26:00,65.1,23.1,29.88,SSE,158,2.9,4.5,20,0.00,,---,0.00,VWS V14.00,2013-04-10 05:26:00,
2013-04-10 01:27:00,65.1,26.4,29.88,SW,225,3.8,4.0,23,0.00,,---,0.00,VWS V14.00,2013-04-10 05:27:00,
2013-04-10 01:33:00,65.1,26.4,29.88,SSW,202,2.7,3.6,23,0.00,,---,0.00,VWS V14.00,2013-04-10 05:33:00,
2013-04-10 01:35:00,64.9,26.3,29.85,SW,225,3.4,4.3,23,0.00,,---,0.00,VWS V14.00,2013-04-10 05:35:00,
2013-04-10 01:38:00,64.9,26.3,29.85,SSW,202,3.1,4.9,23,0.00,,---,0.00,VWS V14.00,2013-04-10 05:38:00,
2013-04-10 01:40:00,65.1,26.4,29.85,SSW,202,1.3,2.9,23,0.00,,---,0.00,VWS V14.00,2013-04-10 05:40:00,
2013-04-10 01:43:00,65.1,26.4,29.85,South,180,4.5,4.5,23,0.00,,---,0.00,VWS V14.00,2013-04-10 05:43:00,
2013-04-10 01:46:00,65.1,26.4,29.85,South,180,4.3,4.3,23,0.00,,---,0.00,VWS V14.00,2013-04-10 05:46:00,
2013-04-10 01:48:00,65.1,26.4,29.85,SSW,202,3.8,3.8,23,0.00,,---,0.00,VWS V14.00,2013-04-10 05:48:00,
2013-04-10 01:49:00,65.3,26.6,29.85,SSW,202,2.9,3.8,23,0.00,,---,0.00,VWS V14.00,2013-04-10 05:49:00,
2013-04-10 01:54:00,65.5,26.7,29.85,SSW,202,2.5,3.4,23,0.00,,---,0.00,VWS V14.00,2013-04-10 05:54:00,
2013-04-10 01:56:00,65.5,26.7,29.85,SSW,202,2.7,4.0,23,0.00,,---,0.00,VWS V14.00,2013-04-10 05:56:00,
2013-04-10 01:59:00,65.7,26.9,29.85,SSW,202,2.7,2.7,23,0.00,,---,0.00,VWS V14.00,2013-04-10 05:59:00,
2013-04-10 02:00:00,65.8,27.0,29.85,SSW,202,3.1,3.1,23,0.00,,---,0.00,VWS V14.00,2013-04-10 06:00:00,
2013-04-10 02:01:00,65.8,27.0,29.85,SSW,202,3.8,4.3,23,0.00,,---,0.00,VWS V14.00,2013-04-10 06:01:00,
2013-04-10 02:03:00,65.8,27.0,29.85,SSE,158,2.9,4.9,23,0.00,,---,0.00,VWS V14.00,2013-04-10 06:03:00,
2013-04-10 02:04:00,65.8,27.0,29.85,SW,225,2.2,2.9,23,0.00,,---,0.00,VWS V14.00,2013-04-10 06:04:00,
2013-04-10 02:09:00,66.2,24.0,29.85,WSW,248,2.2,6.0,20,0.00,,---,0.00,VWS V14.00,2013-04-10 06:09:00,
2013-04-10 02:10:00,66.4,24.1,29.85,SW,225,4.7,4.7,20,0.00,,---,0.00,VWS V14.00,2013-04-10 06:10:00,
2013-04-10 02:11:00,66.4,24.1,29.85,West,270,6.0,6.0,20,0.00,,---,0.00,VWS V14.00,2013-04-10 06:11:00,
2013-04-10 02:14:00,67.5,25.0,29.85,West,270,3.1,5.8,20,0.00,,---,0.00,VWS V14.00,2013-04-10 06:14:00,
2013-04-10 02:16:00,67.6,25.2,29.85,West,270,3.8,7.4,20,0.00,,---,0.00,VWS V14.00,2013-04-10 06:16:00,
2013-04-10 02:18:00,67.8,25.3,29.85,SW,225,2.9,5.6,20,0.00,,---,0.00,VWS V14.00,2013-04-10 06:18:00,
2013-04-10 02:21:00,68.4,25.8,29.85,West,270,8.7,8.7,20,0.00,,---,0.00,VWS V14.00,2013-04-10 06:21:00,
2013-04-10 02:23:00,68.4,25.8,29.85,WSW,248,2.0,8.7,20,0.00,,---,0.00,VWS V14.00,2013-04-10 06:23:00,
2013-04-10 02:26:00,68.5,25.9,29.85,West,270,2.9,6.9,20,0.00,,---,0.00,VWS V14.00,2013-04-10 06:26:00,
2013-04-10 02:28:00,68.5,25.9,29.85,West,270,7.6,7.6,20,0.00,,---,0.00,VWS V14.00,2013-04-10 06:28:00,
2013-04-10 02:29:00,68.7,26.1,29.85,West,270,2.0,7.6,20,0.00,,---,0.00,VWS V14.00,2013-04-10 06:29:00,
2013-04-10 02:32:00,68.7,26.1,29.85,West,270,4.0,10.3,20,0.00,,---,0.00,VWS V14.00,2013-04-10 06:32:00,
2013-04-10 02:33:00,68.9,26.2,29.85,WSW,248,5.4,5.4,20,0.00,,---,0.00,VWS V14.00,2013-04-10 06:33:00,
2013-04-10 02:34:00,68.9,26.2,29.85,West,270,7.4,7.4,20,0.00,,---,0.00,VWS V14.00,2013-04-10 06:34:00,
2013-04-10 02:39:00,69.1,26.4,29.85,WSW,248,4.0,10.1,20,0.00,,---,0.00,VWS V14.00,2013-04-10 06:39:00,
2013-04-10 02:41:00,68.9,26.2,29.85,West,270,6.5,6.5,20,0.00,,---,0.00,VWS V14.00,2013-04-10 06:41:00,
2013-04-10 02:44:00,69.1,26.4,29.85,WSW,248,4.3,6.0,20,0.00,,---,0.00,VWS V14.00,2013-04-10 06:44:00,
2013-04-10 02:46:00,68.9,26.2,29.85,West,270,6.0,10.7,20,0.00,,---,0.00,VWS V14.00,2013-04-10 06:46:00,
2013-04-10 02:49:00,68.9,26.2,29.85,WSW,248,4.3,4.7,20,0.00,,---,0.00,VWS V14.00,2013-04-10 06:49:00,
2013-04-10 02:51:00,69.1,26.4,29.85,WSW,248,4.0,7.6,20,0.00,,---,0.00,VWS V14.00,2013-04-10 06:51:00,
2013-04-10 02:52:00,69.1,26.4,29.85,West,270,3.1,4.9,20,0.00,,---,0.00,VWS V14.00,2013-04-10 06:52:00,
2013-04-10 02:54:00,68.9,26.2,29.85,WSW,248,3.6,5.8,20,0.00,,---,0.00,VWS V14.00,2013-04-10 06:54:00,
2013-04-10 02:58:00,68.9,26.2,29.85,West,270,6.3,6.3,20,0.00,,---,0.00,VWS V14.00,2013-04-10 06:58:00,
2013-04-10 03:00:00,68.9,26.2,29.85,WSW,248,5.6,5.6,20,0.00,,---,0.00,VWS V14.00,2013-04-10 07:00:00,
2013-04-10 03:01:00,68.9,26.2,29.85,WSW,248,3.6,5.6,20,0.00,,---,0.00,VWS V14.00,2013-04-10 07:01:00,
2013-04-10 03:03:00,68.9,26.2,29.85,SSW,202,5.4,5.8,20,0.00,,---,0.00,VWS V14.00,2013-04-10 07:03:00,
2013-04-10 03:07:00,68.9,26.2,29.85,West,270,5.6,5.6,20,0.00,,---,0.00,VWS V14.00,2013-04-10 07:07:00,
2013-04-10 03:08:00,68.7,26.1,29.85,WSW,248,5.4,5.4,20,0.00,,---,0.00,VWS V14.00,2013-04-10 07:08:00,
2013-04-10 03:09:00,68.7,26.1,29.85,West,270,3.4,5.4,20,0.00,,---,0.00,VWS V14.00,2013-04-10 07:09:00,
2013-04-10 03:12:00,68.5,25.9,29.85,WSW,248,5.6,8.1,20,0.00,,---,0.00,VWS V14.00,2013-04-10 07:12:00,
2013-04-10 03:14:00,68.5,25.9,29.85,WSW,248,5.4,5.6,20,0.00,,---,0.00,VWS V14.00,2013-04-10 07:14:00,
2013-04-10 03:15:00,68.5,25.9,29.85,West,270,2.7,5.8,20,0.00,,---,0.00,VWS V14.00,2013-04-10 07:15:00,
2013-04-10 03:17:00,68.4,25.8,29.85,West,270,6.0,7.2,20,0.00,,---,0.00,VWS V14.00,2013-04-10 07:17:00,
2013-04-10 03:20:00,68.5,25.9,29.85,WSW,248,2.0,6.5,20,0.00,,---,0.00,VWS V14.00,2013-04-10 07:20:00,
2013-04-10 03:22:00,68.5,25.9,29.85,WSW,248,5.4,7.4,20,0.00,,---,0.00,VWS V14.00,2013-04-10 07:22:00,
2013-04-10 03:23:00,68.5,25.9,29.85,West,270,3.4,5.4,20,0.00,,---,0.00,VWS V14.00,2013-04-10 07:23:00,
2013-04-10 03:25:00,68.4,25.8,29.85,WSW,248,4.0,5.8,20,0.00,,---,0.00,VWS V14.00,2013-04-10 07:25:00,
2013-04-10 03:28:00,68.4,25.8,29.85,WSW,248,6.3,6.5,20,0.00,,---,0.00,VWS V14.00,2013-04-10 07:28:00,
2013-04-10 03:29:00,68.4,25.8,29.85,WSW,248,9.8,9.8,20,0.00,,---,0.00,VWS V14.00,2013-04-10 07:29:00,
2013-04-10 03:32:00,68.2,25.6,29.85,WSW,248,2.7,4.3,20,0.00,,---,0.00,VWS V14.00,2013-04-10 07:32:00,
2013-04-10 03:34:00,68.2,25.6,29.85,WSW,248,8.5,9.0,20,0.00,,---,0.00,VWS V14.00,2013-04-10 07:34:00,
2013-04-10 03:37:00,68.4,25.8,29.85,West,270,3.8,6.5,20,0.00,,---,0.00,VWS V14.00,2013-04-10 07:37:00,
2013-04-10 03:38:00,68.4,25.8,29.85,West,270,5.4,8.1,20,0.00,,---,0.00,VWS V14.00,2013-04-10 07:38:00,
2013-04-10 03:39:00,68.4,25.8,29.85,WSW,248,3.4,6.3,20,0.00,,---,0.00,VWS V14.00,2013-04-10 07:39:00,
2013-04-10 03:40:00,68.4,25.8,29.85,West,270,7.6,7.6,20,0.00,,---,0.00,VWS V14.00,2013-04-10 07:40:00,
2013-04-10 03:44:00,68.2,25.6,29.85,West,270,9.8,9.8,20,0.00,,---,0.00,VWS V14.00,2013-04-10 07:44:00,
2013-04-10 03:48:00,68.2,25.6,29.85,WSW,248,6.0,6.0,20,0.00,,---,0.00,VWS V14.00,2013-04-10 07:48:00,
2013-04-10 03:50:00,68.2,25.6,29.85,WSW,248,5.8,10.5,20,0.00,,---,0.00,VWS V14.00,2013-04-10 07:50:00,
2013-04-10 03:53:00,68.0,25.5,29.85,West,270,7.2,8.5,20,0.00,,---,0.00,VWS V14.00,2013-04-10 07:53:00,
2013-04-10 03:55:00,68.0,25.5,29.85,WSW,248,6.0,6.5,20,0.00,,---,0.00,VWS V14.00,2013-04-10 07:55:00,
2013-04-10 03:57:00,68.0,25.5,29.85,WSW,248,3.1,8.7,20,0.00,,---,0.00,VWS V14.00,2013-04-10 07:57:00,
2013-04-10 04:00:00,67.8,25.3,29.85,WSW,248,7.2,7.2,20,0.00,,---,0.00,VWS V14.00,2013-04-10 08:00:00,
2013-04-10 04:02:00,67.8,25.3,29.85,SW,225,4.9,4.9,20,0.00,,---,0.00,VWS V14.00,2013-04-10 08:02:00,
2013-04-10 04:03:00,67.6,25.2,29.85,WSW,248,6.3,7.4,20,0.00,,---,0.00,VWS V14.00,2013-04-10 08:03:00,
2013-04-10 04:04:00,67.6,25.2,29.85,WNW,292,2.9,6.3,20,0.00,,---,0.00,VWS V14.00,2013-04-10 08:04:00,
2013-04-10 04:07:00,67.6,25.2,29.85,West,270,8.1,8.1,20,0.00,,---,0.00,VWS V14.00,2013-04-10 08:07:00,
2013-04-10 04:08:00,67.6,25.2,29.85,West,270,6.0,8.1,20,0.00,,---,0.00,VWS V14.00,2013-04-10 08:08:00,
2013-04-10 04:09:00,67.6,25.2,29.85,West,270,4.9,6.0,20,0.00,,---,0.00,VWS V14.00,2013-04-10 08:09:00,
2013-04-10 04:13:00,67.6,25.2,29.85,WSW,248,7.6,7.6,20,0.00,,---,0.00,VWS V14.00,2013-04-10 08:13:00,
2013-04-10 04:15:00,67.5,25.0,29.85,WSW,248,3.8,6.0,20,0.00,,---,0.00,VWS V14.00,2013-04-10 08:15:00,
2013-04-10 04:17:00,67.6,25.2,29.85,WSW,248,7.6,7.6,20,0.00,,---,0.00,VWS V14.00,2013-04-10 08:17:00,
2013-04-10 04:18:00,67.6,25.2,29.85,WSW,248,3.6,7.6,20,0.00,,---,0.00,VWS V14.00,2013-04-10 08:18:00,
2013-04-10 04:19:00,67.5,25.0,29.82,West,270,4.0,6.3,20,0.00,,---,0.00,VWS V14.00,2013-04-10 08:19:00,
2013-04-10 04:22:00,67.6,25.2,29.82,West,270,7.4,8.7,20,0.00,,---,0.00,VWS V14.00,2013-04-10 08:22:00,
2013-04-10 04:25:00,67.6,25.2,29.82,WSW,248,6.5,8.7,20,0.00,,---,0.00,VWS V14.00,2013-04-10 08:25:00,
2013-04-10 04:26:00,67.6,25.2,29.82,SW,225,6.9,9.6,20,0.00,,---,0.00,VWS V14.00,2013-04-10 08:26:00,
2013-04-10 04:29:00,67.6,25.2,29.82,ESE,112,5.8,12.8,20,0.00,,---,0.00,VWS V14.00,2013-04-10 08:29:00,
2013-04-10 04:31:00,67.8,25.3,29.82,WSW,248,11.0,11.0,20,0.00,,---,0.00,VWS V14.00,2013-04-10 08:31:00,
2013-04-10 04:34:00,67.8,25.3,29.85,West,270,4.3,10.5,20,0.00,,---,0.00,VWS V14.00,2013-04-10 08:34:00,
2013-04-10 04:35:00,67.6,25.2,29.85,WSW,248,7.8,7.8,20,0.00,,---,0.00,VWS V14.00,2013-04-10 08:35:00,
2013-04-10 04:37:00,67.6,25.2,29.85,WSW,248,6.0,6.0,20,0.00,,---,0.00,VWS V14.00,2013-04-10 08:37:00,
2013-04-10 04:39:00,67.8,25.3,29.85,WSW,248,4.3,9.6,20,0.00,,---,0.00,VWS V14.00,2013-04-10 08:39:00,
2013-04-10 04:40:00,67.8,25.3,29.85,WSW,248,4.9,10.5,20,0.00,,---,0.00,VWS V14.00,2013-04-10 08:40:00,
2013-04-10 04:41:00,67.8,25.3,29.85,WSW,248,3.4,5.6,20,0.00,,---,0.00,VWS V14.00,2013-04-10 08:41:00,
2013-04-10 04:43:00,67.8,25.3,29.85,West,270,3.4,7.6,20,0.00,,---,0.00,VWS V14.00,2013-04-10 08:43:00,
2013-04-10 04:44:00,67.6,25.2,29.85,West,270,6.3,7.2,20,0.00,,---,0.00,VWS V14.00,2013-04-10 08:44:00,
2013-04-10 04:49:00,67.6,25.2,29.85,WSW,248,7.6,13.2,20,0.00,,---,0.00,VWS V14.00,2013-04-10 08:49:00,
2013-04-10 04:52:00,67.6,25.2,29.85,West,270,7.2,8.5,20,0.00,,---,0.00,VWS V14.00,2013-04-10 08:52:00,
2013-04-10 04:55:00,67.6,25.2,29.85,WSW,248,6.5,6.5,20,0.00,,---,0.00,VWS V14.00,2013-04-10 08:55:00,
2013-04-10 04:56:00,67.6,25.2,29.85,West,270,3.1,6.5,20,0.00,,---,0.00,VWS V14.00,2013-04-10 08:56:00,
2013-04-10 04:57:00,67.6,25.2,29.85,WSW,248,5.4,5.8,20,0.00,,---,0.00,VWS V14.00,2013-04-10 08:57:00,
2013-04-10 04:58:00,67.6,25.2,29.85,West,270,4.9,6.3,20,0.00,,---,0.00,VWS V14.00,2013-04-10 08:58:00,
2013-04-10 05:02:00,67.6,25.2,29.85,WSW,248,5.8,6.3,20,0.00,,---,0.00,VWS V14.00,2013-04-10 09:02:00,
2013-04-10 05:03:00,67.6,25.2,29.85,West,270,5.8,6.3,20,0.00,,---,0.00,VWS V14.00,2013-04-10 09:03:00,
2013-04-10 05:04:00,67.6,25.2,29.85,West,270,3.6,7.8,20,0.00,,---,0.00,VWS V14.00,2013-04-10 09:04:00,
2013-04-10 05:07:00,67.6,25.2,29.85,WNW,292,4.0,6.5,20,0.00,,---,0.00,VWS V14.00,2013-04-10 09:07:00,
2013-04-10 05:08:00,67.6,25.2,29.85,West,270,5.6,6.5,20,0.00,,---,0.00,VWS V14.00,2013-04-10 09:08:00,
2013-04-10 05:10:00,67.6,25.2,29.85,West,270,7.4,7.4,20,0.00,,---,0.00,VWS V14.00,2013-04-10 09:10:00,
2013-04-10 05:13:00,67.6,25.2,29.85,WSW,248,3.4,5.6,20,0.00,,---,0.00,VWS V14.00,2013-04-10 09:13:00,
2013-04-10 05:14:00,67.6,25.2,29.85,WSW,248,6.0,7.4,20,0.00,,---,0.00,VWS V14.00,2013-04-10 09:14:00,
2013-04-10 05:17:00,67.6,25.2,29.85,WNW,292,6.3,6.3,20,0.00,,---,0.00,VWS V14.00,2013-04-10 09:17:00,
2013-04-10 05:19:00,67.6,25.2,29.85,West,270,5.4,7.4,20,0.00,,---,0.00,VWS V14.00,2013-04-10 09:19:00,
2013-04-10 05:22:00,67.6,25.2,29.85,NW,315,7.4,7.4,20,0.00,,---,0.00,VWS V14.00,2013-04-10 09:22:00,
2013-04-10 05:23:00,67.8,25.3,29.85,West,270,4.3,7.4,20,0.00,,---,0.00,VWS V14.00,2013-04-10 09:23:00,
2013-04-10 05:25:00,67.8,25.3,29.85,WSW,248,6.5,6.5,20,0.00,,---,0.00,VWS V14.00,2013-04-10 09:25:00,
2013-04-10 05:28:00,67.8,25.3,29.85,WSW,248,6.5,6.5,20,0.00,,---,0.00,VWS V14.00,2013-04-10 09:28:00,
2013-04-10 05:30:00,67.8,25.3,29.85,West,270,5.4,5.4,20,0.00,,---,0.00,VWS V14.00,2013-04-10 09:30:00,
2013-04-10 05:31:00,68.0,25.5,29.85,SW,225,9.2,9.2,20,0.00,,---,0.00,VWS V14.00,2013-04-10 09:31:00,
2013-04-10 05:35:00,68.0,25.5,29.82,WNW,292,5.8,7.8,20,0.00,,---,0.00,VWS V14.00,2013-04-10 09:35:00,
2013-04-10 05:36:00,68.0,25.5,29.82,West,270,4.3,5.8,20,0.00,,---,0.00,VWS V14.00,2013-04-10 09:36:00,
2013-04-10 05:41:00,68.0,25.5,29.82,WSW,248,2.9,5.4,20,0.00,,---,0.00,VWS V14.00,2013-04-10 09:41:00,
2013-04-10 05:43:00,68.0,25.5,29.82,West,270,5.4,5.6,20,0.00,,---,0.00,VWS V14.00,2013-04-10 09:43:00,
2013-04-10 05:44:00,68.0,25.5,29.82,West,270,3.6,5.4,20,0.00,,---,0.00,VWS V14.00,2013-04-10 09:44:00,
2013-04-10 05:49:00,68.0,25.5,29.82,WNW,292,3.6,6.0,20,0.00,,---,0.00,VWS V14.00,2013-04-10 09:49:00,
2013-04-10 05:50:00,68.0,25.5,29.82,West,270,10.1,10.7,20,0.00,,---,0.00,VWS V14.00,2013-04-10 09:50:00,
2013-04-10 05:52:00,68.2,25.6,29.82,WNW,292,8.5,12.5,20,0.00,,---,0.00,VWS V14.00,2013-04-10 09:52:00,
2013-04-10 05:53:00,68.2,25.6,29.82,West,270,5.4,8.5,20,0.00,,---,0.00,VWS V14.00,2013-04-10 09:53:00,
2013-04-10 05:58:00,67.8,25.3,29.82,NW,315,5.4,6.5,20,0.00,,---,0.00,VWS V14.00,2013-04-10 09:58:00,
2013-04-10 05:59:00,67.8,25.3,29.82,North,0,3.6,5.8,20,0.00,,---,0.00,VWS V14.00,2013-04-10 09:59:00,
2013-04-10 06:03:00,67.5,25.0,29.82,WNW,292,4.3,6.0,20,0.00,,---,0.00,VWS V14.00,2013-04-10 10:03:00,
2013-04-10 06:04:00,67.3,24.9,29.85,NNW,338,4.3,4.3,20,0.00,,---,0.00,VWS V14.00,2013-04-10 10:04:00,
2013-04-10 06:07:00,67.1,24.7,29.85,North,0,4.9,4.9,20,0.00,,---,0.00,VWS V14.00,2013-04-10 10:07:00,
2013-04-10 06:11:00,66.9,24.6,29.85,NNW,338,2.2,2.7,20,0.00,,---,0.00,VWS V14.00,2013-04-10 10:11:00,
2013-04-10 06:12:00,66.7,24.4,29.85,NNW,338,1.6,3.4,20,0.00,,---,0.00,VWS V14.00,2013-04-10 10:12:00,
2013-04-10 06:13:00,66.7,24.4,29.85,NNW,338,1.6,3.6,20,0.00,,---,0.00,VWS V14.00,2013-04-10 10:13:00,
2013-04-10 06:16:00,66.6,24.3,29.85,NNW,338,3.6,3.6,20,0.00,,---,0.00,VWS V14.00,2013-04-10 10:16:00,
2013-04-10 06:17:00,66.6,24.3,29.85,NNW,338,3.1,3.6,20,0.00,,---,0.00,VWS V14.00,2013-04-10 10:17:00,
2013-04-10 06:22:00,66.2,24.0,29.88,NNW,338,1.3,2.2,20,0.00,,---,0.00,VWS V14.00,2013-04-10 10:22:00,
2013-04-10 06:24:00,66.2,24.0,29.88,NW,315,3.1,4.0,20,0.00,,---,0.00,VWS V14.00,2013-04-10 10:24:00,
2013-04-10 06:25:00,66.0,23.8,29.88,WSW,248,1.3,3.1,20,0.00,,---,0.00,VWS V14.00,2013-04-10 10:25:00,
2013-04-10 06:26:00,66.0,23.8,29.88,WSW,248,2.9,3.1,20,0.00,,---,0.00,VWS V14.00,2013-04-10 10:26:00,
2013-04-10 06:29:00,66.2,24.0,29.88,WNW,292,0.9,3.6,20,0.00,,---,0.00,VWS V14.00,2013-04-10 10:29:00,
2013-04-10 06:32:00,65.8,23.7,29.88,North,0,4.3,4.3,20,0.00,,---,0.00,VWS V14.00,2013-04-10 10:32:00,
2013-04-10 06:33:00,65.8,23.7,29.88,North,0,4.7,4.7,20,0.00,,---,0.00,VWS V14.00,2013-04-10 10:33:00,
2013-04-10 06:34:00,65.8,23.7,29.88,NNW,338,2.9,7.4,20,0.00,,---,0.00,VWS V14.00,2013-04-10 10:34:00,
2013-04-10 06:36:00,65.8,23.7,29.88,WSW,248,0.9,2.2,20,0.00,,---,0.00,VWS V14.00,2013-04-10 10:36:00,
2013-04-10 06:37:00,65.8,23.7,29.88,WNW,292,1.1,2.0,20,0.00,,---,0.00,VWS V14.00,2013-04-10 10:37:00,
2013-04-10 06:40:00,65.7,23.5,29.88,North,0,2.9,4.5,20,0.00,,---,0.00,VWS V14.00,2013-04-10 10:40:00,
2013-04-10 06:42:00,65.8,23.7,29.88,North,0,4.7,5.4,20,0.00,,---,0.00,VWS V14.00,2013-04-10 10:42:00,
2013-04-10 06:43:00,65.8,23.7,29.88,NW,315,0.0,4.7,20,0.00,,---,0.00,VWS V14.00,2013-04-10 10:43:00,
2013-04-10 06:44:00,65.8,23.7,29.88,NNW,338,0.9,1.3,20,0.00,,---,0.00,VWS V14.00,2013-04-10 10:44:00,
2013-04-10 06:49:00,65.7,23.5,29.91,North,0,3.6,3.6,20,0.00,,---,0.00,VWS V14.00,2013-04-10 10:49:00,
2013-04-10 06:50:00,65.8,23.7,29.91,NNW,338,2.5,4.0,20,0.00,,---,0.00,VWS V14.00,2013-04-10 10:50:00,
2013-04-10 06:51:00,65.8,23.7,29.91,NNW,338,1.6,2.7,20,0.00,,---,0.00,VWS V14.00,2013-04-10 10:51:00,
2013-04-10 06:55:00,65.8,23.7,29.91,North,0,2.5,2.5,20,0.00,,---,0.00,VWS V14.00,2013-04-10 10:55:00,
2013-04-10 06:58:00,66.0,23.8,29.91,NNE,22,0.0,1.3,20,0.00,,---,0.00,VWS V14.00,2013-04-10 10:58:00,
2013-04-10 06:59:00,66.2,24.0,29.91,North,0,1.3,2.0,20,0.00,,---,0.00,VWS V14.00,2013-04-10 10:59:00,
2013-04-10 07:02:00,66.4,24.1,29.91,North,0,0.0,0.0,20,0.00,,---,0.00,VWS V14.00,2013-04-10 11:02:00,
2013-04-10 07:03:00,66.4,24.1,29.91,North,0,0.0,0.0,20,0.00,,---,0.00,VWS V14.00,2013-04-10 11:03:00,
2013-04-10 07:04:00,66.6,24.3,29.91,North,0,0.0,0.0,20,0.00,,---,0.00,VWS V14.00,2013-04-10 11:04:00,
2013-04-10 07:05:00,66.6,24.3,29.91,North,0,0.0,0.0,20,0.00,,---,0.00,VWS V14.00,2013-04-10 11:05:00,
2013-04-10 07:08:00,66.9,24.6,29.91,North,0,0.0,0.0,20,0.00,,---,0.00,VWS V14.00,2013-04-10 11:08:00,
2013-04-10 07:09:00,67.1,24.7,29.91,North,0,0.0,0.0,20,0.00,,---,0.00,VWS V14.00,2013-04-10 11:09:00,
2013-04-10 07:13:00,67.3,24.9,29.91,NNE,22,0.0,0.0,20,0.00,,---,0.00,VWS V14.00,2013-04-10 11:13:00,
2013-04-10 07:16:00,67.3,24.9,29.91,ENE,68,2.5,4.0,20,0.00,,---,0.00,VWS V14.00,2013-04-10 11:16:00,
2013-04-10 07:21:00,66.0,23.8,29.91,East,90,0.0,0.0,20,0.00,,---,0.00,VWS V14.00,2013-04-10 11:21:00,
2013-04-10 07:22:00,65.8,23.7,29.91,ENE,68,2.9,3.4,20,0.00,,---,0.00,VWS V14.00,2013-04-10 11:22:00,
2013-04-10 07:23:00,65.7,23.5,29.91,ENE,68,2.2,2.9,20,0.00,,---,0.00,VWS V14.00,2013-04-10 11:23:00,
2013-04-10 07:27:00,65.3,23.2,29.91,NE,45,4.0,5.4,20,0.00,,---,0.00,VWS V14.00,2013-04-10 11:27:00,
2013-04-10 07:28:00,65.1,23.1,29.91,ENE,68,6.0,6.0,20,0.00,,---,0.00,VWS V14.00,2013-04-10 11:28:00,
2013-04-10 07:29:00,64.9,22.9,29.91,ENE,68,3.6,6.5,20,0.00,,---,0.00,VWS V14.00,2013-04-10 11:29:00,
2013-04-10 07:32:00,64.2,19.9,29.91,NNE,22,8.7,11.0,18,0.00,,---,0.00,VWS V14.00,2013-04-10 11:32:00,
2013-04-10 07:34:00,63.9,19.6,29.91,NE,45,5.8,6.5,18,0.00,,---,0.00,VWS V14.00,2013-04-10 11:34:00,
2013-04-10 07:35:00,63.5,19.3,29.91,NNE,22,5.8,8.7,18,0.00,,---,0.00,VWS V14.00,2013-04-10 11:35:00,
2013-04-10 07:37:00,63.3,19.1,29.91,ENE,68,2.9,5.8,18,0.00,,---,0.00,VWS V14.00,2013-04-10 11:37:00,
2013-04-10 07:40:00,63.1,19.0,29.91,NE,45,4.9,7.8,18,0.00,,---,0.00,VWS V14.00,2013-04-10 11:40:00,
2013-04-10 07:43:00,62.8,18.7,29.91,NNE,22,5.6,8.5,18,0.00,,---,0.00,VWS V14.00,2013-04-10 11:43:00,
2013-04-10 07:45:00,62.6,18.5,29.91,East,90,5.4,5.8,18,0.00,,---,0.00,VWS V14.00,2013-04-10 11:45:00,
2013-04-10 07:47:00,62.2,19.5,29.91,NE,45,4.9,7.6,19,0.00,,---,0.00,VWS V14.00,2013-04-10 11:47:00,
2013-04-10 07:48:00,62.2,19.5,29.91,NE,45,6.0,6.3,19,0.00,,---,0.00,VWS V14.00,2013-04-10 11:48:00,
2013-04-10 07:52:00,62.2,19.5,29.91,ENE,68,3.4,6.0,19,0.00,,---,0.00,VWS V14.00,2013-04-10 11:52:00,
2013-04-10 07:54:00,62.4,19.6,29.91,ENE,68,6.7,6.7,19,0.00,,---,0.00,VWS V14.00,2013-04-10 11:54:00,
2013-04-10 07:55:00,62.4,19.6,29.91,ENE,68,4.0,6.7,19,0.00,,---,0.00,VWS V14.00,2013-04-10 11:55:00,
2013-04-10 07:56:00,62.6,18.5,29.91,ENE,68,3.6,4.0,18,0.00,,---,0.00,VWS V14.00,2013-04-10 11:56:00,
2013-04-10 07:58:00,62.6,18.5,29.91,ENE,68,5.8,5.8,18,0.00,,---,0.00,VWS V14.00,2013-04-10 11:58:00,
2013-04-10 08:03:00,61.9,19.2,29.91,ENE,68,5.6,5.6,19,0.00,,---,0.00,VWS V14.00,2013-04-10 12:03:00,
2013-04-10 08:04:00,61.7,19.0,29.91,ENE,68,3.6,5.6,19,0.00,,---,0.00,VWS V14.00,2013-04-10 12:04:00,
2013-04-10 08:05:00,61.7,19.0,29.91,ENE,68,3.1,3.8,19,0.00,,---,0.00,VWS V14.00,2013-04-10 12:05:00,
2013-04-10 08:09:00,62.1,19.3,29.91,NE,45,4.9,4.9,19,0.00,,---,0.00,VWS V14.00,2013-04-10 12:09:00,
2013-04-10 08:10:00,62.2,19.5,29.91,East,90,2.9,5.4,19,0.00,,---,0.00,VWS V14.00,2013-04-10 12:10:00,
2013-04-10 08:12:00,62.2,19.5,29.91,ENE,68,5.8,5.8,19,0.00,,---,0.00,VWS V14.00,2013-04-10 12:12:00,
2013-04-10 08:15:00,62.2,19.5,29.91,East,90,4.3,6.5,19,0.00,,---,0.00,VWS V14.00,2013-04-10 12:15:00,
2013-04-10 08:16:00,62.2,19.5,29.91,ENE,68,5.4,5.4,19,0.00,,---,0.00,VWS V14.00,2013-04-10 12:16:00,
2013-04-10 08:18:00,62.2,19.5,29.91,ENE,68,3.1,5.4,19,0.00,,---,0.00,VWS V14.00,2013-04-10 12:18:00,
2013-04-10 08:22:00,62.1,19.3,29.91,ESE,112,4.9,5.8,19,0.00,,---,0.00,VWS V14.00,2013-04-10 12:22:00,
2013-04-10 08:23:00,62.1,19.3,29.91,ENE,68,5.4,6.3,19,0.00,,---,0.00,VWS V14.00,2013-04-10 12:23:00,
2013-04-10 08:25:00,62.1,19.3,29.91,East,90,3.4,5.6,19,0.00,,---,0.00,VWS V14.00,2013-04-10 12:25:00,
2013-04-10 08:26:00,61.9,19.2,29.91,ENE,68,4.9,6.3,19,0.00,,---,0.00,VWS V14.00,2013-04-10 12:26:00,
2013-04-10 08:27:00,61.7,19.0,29.91,NNE,22,5.8,6.3,19,0.00,,---,0.00,VWS V14.00,2013-04-10 12:27:00,
2013-04-10 08:30:00,61.7,19.0,29.91,NE,45,4.3,5.4,19,0.00,,---,0.00,VWS V14.00,2013-04-10 12:30:00,
2013-04-10 08:32:00,61.5,18.9,29.91,ENE,68,3.8,5.4,19,0.00,,---,0.00,VWS V14.00,2013-04-10 12:32:00,
2013-04-10 08:33:00,61.5,18.9,29.91,NE,45,6.3,7.4,19,0.00,,---,0.00,VWS V14.00,2013-04-10 12:33:00,
2013-04-10 08:35:00,61.3,18.8,29.91,East,90,3.1,4.3,19,0.00,,---,0.00,VWS V14.00,2013-04-10 12:35:00,
2013-04-10 08:38:00,61.3,18.8,29.91,ENE,68,5.8,6.0,19,0.00,,---,0.00,VWS V14.00,2013-04-10 12:38:00,
2013-04-10 08:40:00,61.5,18.9,29.91,NE,45,3.8,5.4,19,0.00,,---,0.00,VWS V14.00,2013-04-10 12:40:00,
2013-04-10 08:44:00,61.5,18.9,29.91,NE,45,3.6,6.5,19,0.00,,---,0.00,VWS V14.00,2013-04-10 12:44:00,
2013-04-10 08:45:00,61.3,18.8,29.91,NE,45,3.4,5.8,19,0.00,,---,0.00,VWS V14.00,2013-04-10 12:45:00,
2013-04-10 08:47:00,61.3,18.8,29.91,ENE,68,4.7,7.4,19,0.00,,---,0.00,VWS V14.00,2013-04-10 12:47:00,
2013-04-10 08:51:00,61.2,18.6,29.94,ENE,68,6.9,7.6,19,0.00,,---,0.00,VWS V14.00,2013-04-10 12:51:00,
2013-04-10 08:52:00,61.0,18.5,29.94,ENE,68,4.3,7.8,19,0.00,,---,0.00,VWS V14.00,2013-04-10 12:52:00,
2013-04-10 08:53:00,61.0,18.5,29.94,NE,45,6.5,6.5,19,0.00,,---,0.00,VWS V14.00,2013-04-10 12:53:00,
2013-04-10 08:55:00,61.2,18.6,29.94,NNE,22,3.6,5.8,19,0.00,,---,0.00,VWS V14.00,2013-04-10 12:55:00,
2013-04-10 09:00:00,60.6,18.2,29.94,NE,45,4.9,6.5,19,0.00,,---,0.00,VWS V14.00,2013-04-10 13:00:00,
2013-04-10 09:03:00,60.1,17.7,29.94,NE,45,4.9,7.6,19,0.00,,---,0.00,VWS V14.00,2013-04-10 13:03:00,
2013-04-10 09:04:00,59.9,17.6,29.94,ENE,68,3.6,4.9,19,0.00,,---,0.00,VWS V14.00,2013-04-10 13:04:00,
2013-04-10 09:05:00,60.1,17.7,29.94,ESE,112,5.4,5.4,19,0.00,,---,0.00,VWS V14.00,2013-04-10 13:05:00,
2013-04-10 09:10:00,59.9,17.6,29.94,NE,45,6.3,7.2,19,0.00,,---,0.00,VWS V14.00,2013-04-10 13:10:00,
2013-04-10 09:11:00,59.7,17.4,29.94,NNE,22,4.3,7.6,19,0.00,,---,0.00,VWS V14.00,2013-04-10 13:11:00,
2013-04-10 09:13:00,59.7,17.4,29.94,ENE,68,5.4,5.4,19,0.00,,---,0.00,VWS V14.00,2013-04-10 13:13:00,
2013-04-10 09:16:00,59.9,17.6,29.94,ENE,68,4.9,6.5,19,0.00,,---,0.00,VWS V14.00,2013-04-10 13:16:00,
2013-04-10 09:18:00,60.4,18.0,29.94,NE,45,3.1,5.6,19,0.00,,---,0.00,VWS V14.00,2013-04-10 13:18:00,
2013-04-10 09:19:00,60.8,18.3,29.94,ENE,68,3.4,4.3,19,0.00,,---,0.00,VWS V14.00,2013-04-10 13:19:00,
2013-04-10 09:20:00,61.0,18.5,29.94,NNE,22,3.8,3.8,19,0.00,,---,0.00,VWS V14.00,2013-04-10 13:20:00,
2013-04-10 09:24:00,61.7,19.0,29.94,ENE,68,4.3,5.8,19,0.00,,---,0.00,VWS V14.00,2013-04-10 13:24:00,
2013-04-10 09:25:00,61.9,19.2,29.94,ENE,68,5.8,6.5,19,0.00,,---,0.00,VWS V14.00,2013-04-10 13:25:00,
2013-04-10 09:27:00,62.1,19.3,29.94,NE,45,7.6,7.6,19,0.00,,---,0.00,VWS V14.00,2013-04-10 13:27:00,
2013-04-10 09:29:00,62.2,19.5,29.94,ENE,68,5.4,6.3,19,0.00,,---,0.00,VWS V14.00,2013-04-10 13:29:00,
2013-04-10 09:30:00,62.2,19.5,29.94,ENE,68,6.3,6.3,19,0.00,,---,0.00,VWS V14.00,2013-04-10 13:30:00,
2013-04-10 09:31:00,62.1,19.3,29.94,ENE,68,4.9,6.3,19,0.00,,---,0.00,VWS V14.00,2013-04-10 13:31:00,
2013-04-10 09:35:00,62.8,18.7,29.94,ENE,68,4.9,4.9,18,0.00,,---,0.00,VWS V14.00,2013-04-10 13:35:00,
2013-04-10 09:36:00,63.0,18.8,29.94,ENE,68,2.9,4.9,18,0.00,,---,0.00,VWS V14.00,2013-04-10 13:36:00,
2013-04-10 09:37:00,63.1,19.0,29.94,ENE,68,3.6,3.6,18,0.00,,---,0.00,VWS V14.00,2013-04-10 13:37:00,
2013-04-10 09:38:00,63.3,19.1,29.94,ESE,112,4.7,4.7,18,0.00,,---,0.00,VWS V14.00,2013-04-10 13:38:00,
2013-04-10 09:42:00,64.0,19.7,29.94,NE,45,5.4,5.4,18,0.00,,---,0.00,VWS V14.00,2013-04-10 13:42:00,
2013-04-10 09:43:00,64.0,19.7,29.94,ESE,112,3.6,5.4,18,0.00,,---,0.00,VWS V14.00,2013-04-10 13:43:00,
2013-04-10 09:44:00,64.0,19.7,29.94,ENE,68,3.6,4.9,18,0.00,,---,0.00,VWS V14.00,2013-04-10 13:44:00,
2013-04-10 09:46:00,64.2,19.9,29.94,ESE,112,4.0,4.9,18,0.00,,---,0.00,VWS V14.00,2013-04-10 13:46:00,
2013-04-10 09:48:00,64.0,19.7,29.94,ENE,68,5.4,5.4,18,0.00,,---,0.00,VWS V14.00,2013-04-10 13:48:00,
2013-04-10 09:52:00,63.9,19.6,29.94,NE,45,4.9,5.6,18,0.00,,---,0.00,VWS V14.00,2013-04-10 13:52:00,
2013-04-10 09:53:00,64.0,19.7,29.94,ENE,68,5.4,5.4,18,0.00,,---,0.00,VWS V14.00,2013-04-10 13:53:00,
2013-04-10 09:54:00,64.0,19.7,29.94,ENE,68,6.0,6.3,18,0.00,,---,0.00,VWS V14.00,2013-04-10 13:54:00,
2013-04-10 09:57:00,64.2,19.9,29.94,ENE,68,5.6,5.6,18,0.00,,---,0.00,VWS V14.00,2013-04-10 13:57:00,
2013-04-10 09:59:00,64.0,19.7,29.94,ENE,68,3.6,5.8,18,0.00,,---,0.00,VWS V14.00,2013-04-10 13:59:00,
2013-04-10 10:01:00,64.2,19.9,29.94,ENE,68,4.7,5.8,18,0.00,,---,0.00,VWS V14.00,2013-04-10 14:01:00,
2013-04-10 10:05:00,64.6,20.1,29.94,ENE,68,3.8,5.4,18,0.00,,---,0.00,VWS V14.00,2013-04-10 14:05:00,
2013-04-10 10:07:00,64.8,20.3,29.94,East,90,3.8,4.5,18,0.00,,---,0.00,VWS V14.00,2013-04-10 14:07:00,
2013-04-10 10:09:00,64.9,20.4,29.94,ENE,68,5.4,5.4,18,0.00,,---,0.00,VWS V14.00,2013-04-10 14:09:00,
2013-04-10 10:10:00,64.9,20.4,29.94,ENE,68,5.6,7.4,18,0.00,,---,0.00,VWS V14.00,2013-04-10 14:10:00,
2013-04-10 10:12:00,64.6,20.1,29.94,ENE,68,3.4,5.8,18,0.00,,---,0.00,VWS V14.00,2013-04-10 14:12:00,
2013-04-10 10:13:00,64.6,20.1,29.94,ESE,112,6.5,6.5,18,0.00,,---,0.00,VWS V14.00,2013-04-10 14:13:00,
2013-04-10 10:15:00,64.4,20.0,29.94,ESE,112,3.1,4.0,18,0.00,,---,0.00,VWS V14.00,2013-04-10 14:15:00,
2013-04-10 10:16:00,64.8,20.3,29.94,ESE,112,3.4,4.7,18,0.00,,---,0.00,VWS V14.00,2013-04-10 14:16:00,
2013-04-10 10:18:00,65.7,21.0,29.94,NNE,22,5.4,5.4,18,0.00,,---,0.00,VWS V14.00,2013-04-10 14:18:00,
2013-04-10 10:22:00,65.7,21.0,29.91,ESE,112,3.8,5.8,18,0.00,,---,0.00,VWS V14.00,2013-04-10 14:22:00,
2013-04-10 10:23:00,65.7,21.0,29.91,NE,45,2.5,4.3,18,0.00,,---,0.00,VWS V14.00,2013-04-10 14:23:00,
2013-04-10 10:27:00,66.4,20.3,29.91,East,90,5.8,5.8,17,0.00,,---,0.00,VWS V14.00,2013-04-10 14:27:00,
2013-04-10 10:29:00,66.7,20.6,29.91,ENE,68,4.7,6.0,17,0.00,,---,0.00,VWS V14.00,2013-04-10 14:29:00,
2013-04-10 10:32:00,66.2,20.1,29.91,ESE,112,6.5,6.5,17,0.00,,---,0.00,VWS V14.00,2013-04-10 14:32:00,
2013-04-10 10:34:00,66.2,20.1,29.91,ESE,112,3.6,5.8,17,0.00,,---,0.00,VWS V14.00,2013-04-10 14:34:00,
2013-04-10 10:35:00,66.6,20.4,29.91,ESE,112,5.4,5.4,17,0.00,,---,0.00,VWS V14.00,2013-04-10 14:35:00,
2013-04-10 10:36:00,66.6,20.4,29.91,NE,45,4.3,5.4,17,0.00,,---,0.00,VWS V14.00,2013-04-10 14:36:00,
2013-04-10 10:41:00,66.0,21.3,29.91,ESE,112,4.3,7.4,18,0.00,,---,0.00,VWS V14.00,2013-04-10 14:41:00,
2013-04-10 10:42:00,66.2,20.1,29.91,ENE,68,3.8,5.8,17,0.00,,---,0.00,VWS V14.00,2013-04-10 14:42:00,
2013-04-10 10:43:00,66.4,20.3,29.91,ESE,112,3.6,5.4,17,0.00,,---,0.00,VWS V14.00,2013-04-10 14:43:00,
2013-04-10 10:45:00,66.4,20.3,29.91,NE,45,2.9,5.4,17,0.00,,---,0.00,VWS V14.00,2013-04-10 14:45:00,
2013-04-10 10:48:00,66.4,20.3,29.91,NE,45,6.3,6.3,17,0.00,,---,0.00,VWS V14.00,2013-04-10 14:48:00,
2013-04-10 10:50:00,66.2,20.1,29.91,ENE,68,5.4,6.3,17,0.00,,---,0.00,VWS V14.00,2013-04-10 14:50:00,
2013-04-10 10:52:00,66.0,21.3,29.91,ENE,68,4.0,6.7,18,0.00,,---,0.00,VWS V14.00,2013-04-10 14:52:00,
2013-04-10 10:55:00,65.7,21.0,29.91,ESE,112,5.6,5.6,18,0.00,,---,0.00,VWS V14.00,2013-04-10 14:55:00,
2013-04-10 10:56:00,65.7,21.0,29.91,East,90,4.9,5.6,18,0.00,,---,0.00,VWS V14.00,2013-04-10 14:56:00,
2013-04-10 10:58:00,65.7,21.0,29.91,NE,45,3.1,6.0,18,0.00,,---,0.00,VWS V14.00,2013-04-10 14:58:00,
2013-04-10 11:00:00,65.7,21.0,29.91,ENE,68,5.8,5.8,18,0.00,,---,0.00,VWS V14.00,2013-04-10 15:00:00,
2013-04-10 11:01:00,65.8,21.2,29.91,ENE,68,5.8,5.8,18,0.00,,---,0.00,VWS V14.00,2013-04-10 15:01:00,
2013-04-10 11:02:00,65.8,21.2,29.91,NE,45,5.4,5.8,18,0.00,,---,0.00,VWS V14.00,2013-04-10 15:02:00,
2013-04-10 11:05:00,66.0,21.3,29.91,NE,45,2.9,5.4,18,0.00,,---,0.00,VWS V14.00,2013-04-10 15:05:00,
2013-04-10 11:06:00,66.2,20.1,29.91,ENE,68,5.4,5.4,17,0.00,,---,0.00,VWS V14.00,2013-04-10 15:06:00,
2013-04-10 11:07:00,66.2,20.1,29.91,ESE,112,5.6,6.0,17,0.00,,---,0.00,VWS V14.00,2013-04-10 15:07:00,
2013-04-10 11:10:00,66.2,20.1,29.91,NE,45,4.3,5.6,17,0.00,,---,0.00,VWS V14.00,2013-04-10 15:10:00,
2013-04-10 11:12:00,66.6,20.4,29.91,East,90,4.0,4.9,17,0.00,,---,0.00,VWS V14.00,2013-04-10 15:12:00,
2013-04-10 11:13:00,66.6,20.4,29.91,SE,135,5.8,5.8,17,0.00,,---,0.00,VWS V14.00,2013-04-10 15:13:00,
2013-04-10 11:16:00,66.4,20.3,29.91,SE,135,7.8,7.8,17,0.00,,---,0.00,VWS V14.00,2013-04-10 15:16:00,
2013-04-10 11:18:00,66.4,20.3,29.91,SE,135,4.7,6.3,17,0.00,,---,0.00,VWS V14.00,2013-04-10 15:18:00,
2013-04-10 11:20:00,65.8,21.2,29.91,ESE,112,6.0,7.8,18,0.00,,---,0.00,VWS V14.00,2013-04-10 15:20:00,
2013-04-10 11:23:00,66.4,20.3,29.91,SSE,158,6.0,6.0,17,0.00,,---,0.00,VWS V14.00,2013-04-10 15:23:00,
2013-04-10 11:24:00,66.2,20.1,29.91,SSE,158,5.4,6.3,17,0.00,,---,0.00,VWS V14.00,2013-04-10 15:24:00,
2013-04-10 11:26:00,65.8,21.2,29.91,SE,135,4.9,6.0,18,0.00,,---,0.00,VWS V14.00,2013-04-10 15:26:00,
2013-04-10 11:29:00,65.8,21.2,29.91,SE,135,3.8,5.6,18,0.00,,---,0.00,VWS V14.00,2013-04-10 15:29:00,
2013-04-10 11:30:00,65.8,21.2,29.91,SE,135,6.3,6.3,18,0.00,,---,0.00,VWS V14.00,2013-04-10 15:30:00,
2013-04-10 11:34:00,66.6,20.4,29.91,ESE,112,4.3,5.8,17,0.00,,---,0.00,VWS V14.00,2013-04-10 15:34:00,
2013-04-10 11:36:00,66.6,20.4,29.91,SE,135,7.6,7.6,17,0.00,,---,0.00,VWS V14.00,2013-04-10 15:36:00,
2013-04-10 11:40:00,65.8,21.2,29.91,SE,135,6.7,7.4,18,0.00,,---,0.00,VWS V14.00,2013-04-10 15:40:00,
2013-04-10 11:42:00,66.2,20.1,29.91,ESE,112,6.5,6.5,17,0.00,,---,0.00,VWS V14.00,2013-04-10 15:42:00,
2013-04-10 11:43:00,66.2,20.1,29.91,SSE,158,6.3,6.5,17,0.00,,---,0.00,VWS V14.00,2013-04-10 15:43:00,
2013-04-10 11:45:00,66.2,20.1,29.91,ESE,112,5.6,7.2,17,0.00,,---,0.00,VWS V14.00,2013-04-10 15:45:00,
2013-04-10 11:48:00,66.2,20.1,29.91,SE,135,6.0,7.4,17,0.00,,---,0.00,VWS V14.00,2013-04-10 15:48:00,
2013-04-10 11:50:00,66.4,20.3,29.91,ESE,112,5.6,6.3,17,0.00,,---,0.00,VWS V14.00,2013-04-10 15:50:00,
2013-04-10 11:51:00,66.4,20.3,29.91,SE,135,5.8,6.9,17,0.00,,---,0.00,VWS V14.00,2013-04-10 15:51:00,
2013-04-10 11:52:00,66.4,20.3,29.91,SE,135,6.3,6.5,17,0.00,,---,0.00,VWS V14.00,2013-04-10 15:52:00,
2013-04-10 11:55:00,66.2,20.1,29.91,ESE,112,6.0,8.5,17,0.00,,---,0.00,VWS V14.00,2013-04-10 15:55:00,
2013-04-10 11:56:00,66.9,20.7,29.91,ENE,68,6.3,6.3,17,0.00,,---,0.00,VWS V14.00,2013-04-10 15:56:00,
2013-04-10 11:58:00,66.9,20.7,29.91,ENE,68,6.5,7.2,17,0.00,,---,0.00,VWS V14.00,2013-04-10 15:58:00,
2013-04-10 11:59:00,66.4,20.3,29.91,ESE,112,7.6,7.6,17,0.00,,---,0.00,VWS V14.00,2013-04-10 15:59:00,
2013-04-10 12:01:00,65.8,21.2,29.91,NE,45,7.6,7.8,18,0.00,,---,0.00,VWS V14.00,2013-04-10 16:01:00,
2013-04-10 12:02:00,65.7,21.0,29.91,East,90,5.4,7.6,18,0.00,,---,0.00,VWS V14.00,2013-04-10 16:02:00,
2013-04-10 12:04:00,65.5,20.9,29.91,SE,135,2.9,6.3,18,0.00,,---,0.00,VWS V14.00,2013-04-10 16:04:00,
2013-04-10 12:05:00,64.9,20.4,29.91,SE,135,5.4,6.5,18,0.00,,---,0.00,VWS V14.00,2013-04-10 16:05:00,
2013-04-10 12:08:00,64.4,20.0,29.91,SE,135,7.4,7.4,18,0.00,,---,0.00,VWS V14.00,2013-04-10 16:08:00,
2013-04-10 12:11:00,64.4,20.0,29.91,East,90,6.3,9.8,18,0.00,,---,0.00,VWS V14.00,2013-04-10 16:11:00,
2013-04-10 12:12:00,64.4,20.0,29.91,NE,45,4.9,6.3,18,0.00,,---,0.00,VWS V14.00,2013-04-10 16:12:00,
2013-04-10 12:13:00,64.2,19.9,29.91,SE,135,4.9,10.1,18,0.00,,---,0.00,VWS V14.00,2013-04-10 16:13:00,
2013-04-10 12:14:00,63.7,19.4,29.91,ENE,68,6.3,9.8,18,0.00,,---,0.00,VWS V14.00,2013-04-10 16:14:00,
2013-04-10 12:18:00,62.8,18.7,29.91,East,90,6.3,9.8,18,0.00,,---,0.00,VWS V14.00,2013-04-10 16:18:00,
2013-04-10 12:20:00,62.2,19.5,29.91,SSE,158,8.1,9.6,19,0.00,,---,0.00,VWS V14.00,2013-04-10 16:20:00,
2013-04-10 12:23:00,61.7,19.0,29.91,East,90,9.8,9.8,19,0.00,,---,0.00,VWS V14.00,2013-04-10 16:23:00,
2013-04-10 12:24:00,61.3,18.8,29.91,East,90,6.5,10.3,19,0.00,,---,0.00,VWS V14.00,2013-04-10 16:24:00,
2013-04-10 12:25:00,61.7,19.0,29.91,SE,135,10.1,10.1,19,0.00,,---,0.00,VWS V14.00,2013-04-10 16:25:00,
2013-04-10 12:29:00,62.2,19.5,29.91,ENE,68,7.6,7.6,19,0.00,,---,0.00,VWS V14.00,2013-04-10 16:29:00,
2013-04-10 12:30:00,61.9,19.2,29.91,East,90,6.0,7.6,19,0.00,,---,0.00,VWS V14.00,2013-04-10 16:30:00,
2013-04-10 12:32:00,62.1,19.3,29.91,ENE,68,5.6,7.6,19,0.00,,---,0.00,VWS V14.00,2013-04-10 16:32:00,
2013-04-10 12:37:00,60.4,18.0,29.91,ESE,112,11.0,12.3,19,0.00,,---,0.00,VWS V14.00,2013-04-10 16:37:00,
2013-04-10 12:40:00,60.6,18.2,29.91,ESE,112,7.4,10.7,19,0.00,,---,0.00,VWS V14.00,2013-04-10 16:40:00,
2013-04-10 12:41:00,60.3,17.9,29.91,ESE,112,8.5,10.3,19,0.00,,---,0.00,VWS V14.00,2013-04-10 16:41:00,
2013-04-10 12:42:00,60.3,17.9,29.91,SSE,158,10.1,10.7,19,0.00,,---,0.00,VWS V14.00,2013-04-10 16:42:00,
2013-04-10 12:44:00,60.3,17.9,29.91,SE,135,8.1,11.0,19,0.00,,---,0.00,VWS V14.00,2013-04-10 16:44:00,
2013-04-10 12:46:00,60.4,18.0,29.91,ESE,112,7.8,8.5,19,0.00,,---,0.00,VWS V14.00,2013-04-10 16:46:00,
2013-04-10 12:47:00,60.3,17.9,29.91,SSE,158,5.4,7.8,19,0.00,,---,0.00,VWS V14.00,2013-04-10 16:47:00,
2013-04-10 12:48:00,60.1,17.7,29.91,East,90,6.5,10.5,19,0.00,,---,0.00,VWS V14.00,2013-04-10 16:48:00,
2013-04-10 12:49:00,59.5,17.3,29.94,ESE,112,12.3,12.3,19,0.00,,---,0.00,VWS V14.00,2013-04-10 16:49:00,
2013-04-10 12:52:00,59.7,17.4,29.94,NNE,22,11.0,11.0,19,0.00,,---,0.00,VWS V14.00,2013-04-10 16:52:00,
2013-04-10 12:55:00,60.1,17.7,29.94,NE,45,7.6,10.3,19,0.00,,---,0.00,VWS V14.00,2013-04-10 16:55:00,
2013-04-10 12:56:00,59.7,17.4,29.94,ESE,112,11.0,11.0,19,0.00,,---,0.00,VWS V14.00,2013-04-10 16:56:00,
2013-04-10 13:00:00,59.7,17.4,29.94,SE,135,6.7,11.9,19,0.00,,---,0.00,VWS V14.00,2013-04-10 17:00:00,
2013-04-10 13:01:00,59.7,17.4,29.94,ENE,68,5.8,8.5,19,0.00,,---,0.00,VWS V14.00,2013-04-10 17:01:00,
2013-04-10 13:02:00,60.3,17.9,29.94,ESE,112,7.8,11.0,19,0.00,,---,0.00,VWS V14.00,2013-04-10 17:02:00,
2013-04-10 13:05:00,60.3,17.9,29.94,SE,135,8.7,8.7,19,0.00,,---,0.00,VWS V14.00,2013-04-10 17:05:00,
2013-04-10 13:07:00,60.4,18.0,29.94,ENE,68,7.2,8.7,19,0.00,,---,0.00,VWS V14.00,2013-04-10 17:07:00,
2013-04-10 13:08:00,60.4,18.0,29.94,ENE,68,7.8,9.6,19,0.00,,---,0.00,VWS V14.00,2013-04-10 17:08:00,
2013-04-10 13:10:00,60.1,17.7,29.94,ENE,68,4.3,9.8,19,0.00,,---,0.00,VWS V14.00,2013-04-10 17:10:00,
2013-04-10 13:13:00,60.1,17.7,29.94,ESE,112,8.5,8.5,19,0.00,,---,0.00,VWS V14.00,2013-04-10 17:13:00,
2013-04-10 13:14:00,59.9,17.6,29.94,SSE,158,6.0,10.3,19,0.00,,---,0.00,VWS V14.00,2013-04-10 17:14:00,
2013-04-10 13:18:00,59.5,17.3,29.94,ENE,68,6.0,8.1,19,0.00,,---,0.00,VWS V14.00,2013-04-10 17:18:00,
2013-04-10 13:21:00,59.2,17.0,29.91,SE,135,10.3,10.3,19,0.00,,---,0.00,VWS V14.00,2013-04-10 17:21:00,
2013-04-10 13:22:00,59.0,16.8,29.91,East,90,10.7,12.3,19,0.00,,---,0.00,VWS V14.00,2013-04-10 17:22:00,
2013-04-10 13:23:00,58.6,16.5,29.91,ESE,112,10.1,12.5,19,0.00,,---,0.00,VWS V14.00,2013-04-10 17:23:00,
2013-04-10 13:24:00,58.5,16.4,29.91,East,90,12.3,12.3,19,0.00,,---,0.00,VWS V14.00,2013-04-10 17:24:00,
2013-04-10 13:27:00,58.3,16.2,29.91,ESE,112,6.0,7.6,19,0.00,,---,0.00,VWS V14.00,2013-04-10 17:27:00,
2013-04-10 13:28:00,58.3,16.2,29.91,East,90,7.8,7.8,19,0.00,,---,0.00,VWS V14.00,2013-04-10 17:28:00,
2013-04-10 13:29:00,58.3,16.2,29.91,ESE,112,7.4,10.3,19,0.00,,---,0.00,VWS V14.00,2013-04-10 17:29:00,
2013-04-10 13:35:00,58.8,16.7,29.91,SE,135,7.6,8.7,19,0.00,,---,0.00,VWS V14.00,2013-04-10 17:35:00,
2013-04-10 13:37:00,58.8,16.7,29.91,SE,135,7.6,8.1,19,0.00,,---,0.00,VWS V14.00,2013-04-10 17:37:00,
2013-04-10 13:40:00,59.4,17.1,29.91,SE,135,12.1,13.6,19,0.00,,---,0.00,VWS V14.00,2013-04-10 17:40:00,
2013-04-10 13:42:00,59.2,17.0,29.91,SSE,158,6.5,8.1,19,0.00,,---,0.00,VWS V14.00,2013-04-10 17:42:00,
2013-04-10 13:43:00,59.2,17.0,29.91,SE,135,9.8,10.5,19,0.00,,---,0.00,VWS V14.00,2013-04-10 17:43:00,
2013-04-10 13:45:00,59.0,16.8,29.91,ESE,112,8.5,12.3,19,0.00,,---,0.00,VWS V14.00,2013-04-10 17:45:00,
2013-04-10 13:48:00,59.5,17.3,29.91,East,90,10.7,11.0,19,0.00,,---,0.00,VWS V14.00,2013-04-10 17:48:00,
2013-04-10 13:50:00,59.5,17.3,29.94,ESE,112,6.3,6.7,19,0.00,,---,0.00,VWS V14.00,2013-04-10 17:50:00,
2013-04-10 13:51:00,59.4,17.1,29.94,SE,135,8.7,10.5,19,0.00,,---,0.00,VWS V14.00,2013-04-10 17:51:00,
2013-04-10 13:52:00,59.5,17.3,29.94,SSE,158,11.0,11.0,19,0.00,,---,0.00,VWS V14.00,2013-04-10 17:52:00,
2013-04-10 13:54:00,59.7,17.4,29.94,ENE,68,6.0,8.1,19,0.00,,---,0.00,VWS V14.00,2013-04-10 17:54:00,
2013-04-10 13:57:00,60.3,17.9,29.94,ESE,112,6.5,8.5,19,0.00,,---,0.00,VWS V14.00,2013-04-10 17:57:00,
2013-04-10 13:58:00,59.9,17.6,29.94,East,90,12.3,12.3,19,0.00,,---,0.00,VWS V14.00,2013-04-10 17:58:00,
2013-04-10 14:00:00,59.9,17.6,29.94,ESE,112,4.3,8.5,19,0.00,,---,0.00,VWS V14.00,2013-04-10 18:00:00,
2013-04-10 14:03:00,60.4,18.0,29.94,East,90,6.3,10.5,19,0.00,,---,0.00,VWS V14.00,2013-04-10 18:03:00,
2013-04-10 14:04:00,60.4,18.0,29.91,ESE,112,6.0,7.6,19,0.00,,---,0.00,VWS V14.00,2013-04-10 18:04:00,
2013-04-10 14:06:00,60.6,18.2,29.91,ESE,112,6.0,8.1,19,0.00,,---,0.00,VWS V14.00,2013-04-10 18:06:00,
2013-04-10 14:09:00,60.8,18.3,29.91,ESE,112,5.8,10.1,19,0.00,,---,0.00,VWS V14.00,2013-04-10 18:09:00,
2013-04-10 14:12:00,60.4,18.0,29.91,ESE,112,8.7,12.5,19,0.00,,---,0.00,VWS V14.00,2013-04-10 18:12:00,
2013-04-10 14:14:00,60.3,17.9,29.91,ESE,112,10.3,10.7,19,0.00,,---,0.00,VWS V14.00,2013-04-10 18:14:00,
2013-04-10 14:15:00,60.3,17.9,29.91,SE,135,4.3,10.3,19,0.00,,---,0.00,VWS V14.00,2013-04-10 18:15:00,
2013-04-10 14:21:00,61.0,18.5,29.91,SSE,158,5.6,7.8,19,0.00,,---,0.00,VWS V14.00,2013-04-10 18:21:00,
2013-04-10 14:22:00,61.0,18.5,29.91,ESE,112,7.8,7.8,19,0.00,,---,0.00,VWS V14.00,2013-04-10 18:22:00,
2013-04-10 14:23:00,61.2,18.6,29.91,ESE,112,6.3,8.5,19,0.00,,---,0.00,VWS V14.00,2013-04-10 18:23:00,
2013-04-10 14:27:00,61.2,18.6,29.91,ESE,112,7.4,7.4,19,0.00,,---,0.00,VWS V14.00,2013-04-10 18:27:00,
2013-04-10 14:29:00,61.2,18.6,29.91,ESE,112,8.7,11.2,19,0.00,,---,0.00,VWS V14.00,2013-04-10 18:29:00,
2013-04-10 14:32:00,61.0,18.5,29.91,ESE,112,10.5,11.0,19,0.00,,---,0.00,VWS V14.00,2013-04-10 18:32:00,
2013-04-10 14:36:00,60.8,18.3,29.91,ESE,112,13.9,13.9,19,0.00,,---,0.00,VWS V14.00,2013-04-10 18:36:00,
2013-04-10 14:39:00,60.8,18.3,29.91,East,90,8.1,14.8,19,0.00,,---,0.00,VWS V14.00,2013-04-10 18:39:00,
2013-04-10 14:40:00,60.8,18.3,29.91,ESE,112,5.8,11.0,19,0.00,,---,0.00,VWS V14.00,2013-04-10 18:40:00,
2013-04-10 14:42:00,61.2,18.6,29.91,ESE,112,7.8,12.5,19,0.00,,---,0.00,VWS V14.00,2013-04-10 18:42:00,
2013-04-10 14:45:00,60.4,18.0,29.91,East,90,8.7,14.5,19,0.00,,---,0.00,VWS V14.00,2013-04-10 18:45:00,
2013-04-10 14:48:00,60.8,18.3,29.91,SE,135,7.4,9.8,19,0.00,,---,0.00,VWS V14.00,2013-04-10 18:48:00,
2013-04-10 14:50:00,60.4,18.0,29.91,ESE,112,12.5,12.5,19,0.00,,---,0.00,VWS V14.00,2013-04-10 18:50:00,
2013-04-10 14:54:00,60.1,17.7,29.91,ESE,112,8.1,10.3,19,0.00,,---,0.00,VWS V14.00,2013-04-10 18:54:00,
2013-04-10 14:57:00,59.4,17.1,29.91,ESE,112,12.1,13.9,19,0.00,,---,0.00,VWS V14.00,2013-04-10 18:57:00,
2013-04-10 14:59:00,59.5,17.3,29.91,ESE,112,13.2,13.2,19,0.00,,---,0.00,VWS V14.00,2013-04-10 18:59:00,
2013-04-10 15:01:00,59.0,16.8,29.91,ESE,112,15.4,15.4,19,0.00,,---,0.00,VWS V14.00,2013-04-10 19:01:00,
2013-04-10 15:02:00,58.5,16.4,29.91,SE,135,10.7,15.4,19,0.00,,---,0.00,VWS V14.00,2013-04-10 19:02:00,
2013-04-10 15:04:00,58.5,16.4,29.88,ESE,112,9.6,10.1,19,0.00,,---,0.00,VWS V14.00,2013-04-10 19:04:00,
2013-04-10 15:07:00,57.9,15.9,29.88,ESE,112,8.7,17.2,19,0.00,,---,0.00,VWS V14.00,2013-04-10 19:07:00,
2013-04-10 15:08:00,57.7,15.8,29.88,SSE,158,10.3,13.6,19,0.00,,---,0.00,VWS V14.00,2013-04-10 19:08:00,
2013-04-10 15:10:00,57.6,15.6,29.88,SE,135,9.6,17.0,19,0.00,,---,0.00,VWS V14.00,2013-04-10 19:10:00,
2013-04-10 15:12:00,57.4,15.5,29.88,SSE,158,12.5,17.2,19,0.00,,---,0.00,VWS V14.00,2013-04-10 19:12:00,
2013-04-10 15:15:00,57.0,16.4,29.88,ESE,112,11.0,14.8,20,0.00,,---,0.00,VWS V14.00,2013-04-10 19:15:00,
2013-04-10 15:17:00,57.0,16.4,29.88,ESE,112,10.1,17.0,20,0.00,,---,0.00,VWS V14.00,2013-04-10 19:17:00,
2013-04-10 15:20:00,57.4,15.5,29.91,ESE,112,12.8,13.0,19,0.00,,---,0.00,VWS V14.00,2013-04-10 19:20:00,
2013-04-10 15:21:00,57.6,15.6,29.91,East,90,4.3,12.8,19,0.00,,---,0.00,VWS V14.00,2013-04-10 19:21:00,
2013-04-10 15:22:00,57.9,15.9,29.91,SE,135,11.0,11.0,19,0.00,,---,0.00,VWS V14.00,2013-04-10 19:22:00,
2013-04-10 15:25:00,57.9,15.9,29.91,SE,135,10.1,13.4,19,0.00,,---,0.00,VWS V14.00,2013-04-10 19:25:00,
2013-04-10 15:27:00,57.9,15.9,29.91,SE,135,11.2,12.5,19,0.00,,---,0.00,VWS V14.00,2013-04-10 19:27:00,
2013-04-10 15:30:00,57.9,15.9,29.91,ESE,112,10.7,12.5,19,0.00,,---,0.00,VWS V14.00,2013-04-10 19:30:00,
2013-04-10 15:32:00,58.1,16.1,29.91,SSE,158,10.7,10.7,19,0.00,,---,0.00,VWS V14.00,2013-04-10 19:32:00,
2013-04-10 15:37:00,57.6,15.6,29.91,ESE,112,9.6,13.2,19,0.00,,---,0.00,VWS V14.00,2013-04-10 19:37:00,
2013-04-10 15:38:00,57.6,15.6,29.91,SE,135,7.4,10.7,19,0.00,,---,0.00,VWS V14.00,2013-04-10 19:38:00,
2013-04-10 15:39:00,57.4,15.5,29.91,SE,135,8.5,14.8,19,0.00,,---,0.00,VWS V14.00,2013-04-10 19:39:00,
2013-04-10 15:45:00,57.6,15.6,29.91,ESE,112,7.8,8.1,19,0.00,,---,0.00,VWS V14.00,2013-04-10 19:45:00,
2013-04-10 15:47:00,57.6,15.6,29.91,ESE,112,7.4,7.8,19,0.00,,---,0.00,VWS V14.00,2013-04-10 19:47:00,
2013-04-10 15:48:00,58.1,19.5,29.91,ESE,112,10.1,10.1,22,0.00,,---,0.00,VWS V14.00,2013-04-10 19:48:00,
2013-04-10 15:52:00,57.7,15.8,29.91,ESE,112,8.5,12.5,19,0.00,,---,0.00,VWS V14.00,2013-04-10 19:52:00,
2013-04-10 15:54:00,57.6,15.6,29.91,SE,135,5.4,8.7,19,0.00,,---,0.00,VWS V14.00,2013-04-10 19:54:00,
2013-04-10 15:58:00,57.6,15.6,29.91,SE,135,6.5,13.2,19,0.00,,---,0.00,VWS V14.00,2013-04-10 19:58:00,
2013-04-10 15:59:00,57.6,15.6,29.91,ESE,112,10.3,10.3,19,0.00,,---,0.00,VWS V14.00,2013-04-10 19:59:00,
2013-04-10 16:02:00,57.2,18.7,29.91,SSE,158,3.8,8.1,22,0.00,,---,0.00,VWS V14.00,2013-04-10 20:02:00,
2013-04-10 16:04:00,57.2,18.7,29.88,SSE,158,7.8,10.3,22,0.00,,---,0.00,VWS V14.00,2013-04-10 20:04:00,
2013-04-10 16:05:00,57.0,18.6,29.88,SSE,158,11.0,11.0,22,0.00,,---,0.00,VWS V14.00,2013-04-10 20:05:00,
2013-04-10 16:06:00,56.8,18.4,29.88,SSE,158,6.3,11.0,22,0.00,,---,0.00,VWS V14.00,2013-04-10 20:06:00,
2013-04-10 16:07:00,56.7,18.3,29.88,SSE,158,12.5,12.5,22,0.00,,---,0.00,VWS V14.00,2013-04-10 20:07:00,
2013-04-10 16:10:00,56.5,18.1,29.88,SSE,158,8.7,12.5,22,0.00,,---,0.00,VWS V14.00,2013-04-10 20:10:00,
2013-04-10 16:13:00,56.3,18.0,29.88,SE,135,6.0,11.9,22,0.00,,---,0.00,VWS V14.00,2013-04-10 20:13:00,
2013-04-10 16:16:00,56.7,18.3,29.88,SSE,158,7.8,12.1,22,0.00,,---,0.00,VWS V14.00,2013-04-10 20:16:00,
2013-04-10 16:17:00,56.7,18.3,29.88,SSE,158,6.5,8.5,22,0.00,,---,0.00,VWS V14.00,2013-04-10 20:17:00,
2013-04-10 16:19:00,56.7,18.3,29.88,ESE,112,10.5,12.1,22,0.00,,---,0.00,VWS V14.00,2013-04-10 20:19:00,
2013-04-10 16:25:00,56.1,17.8,29.88,SSE,158,10.1,12.8,22,0.00,,---,0.00,VWS V14.00,2013-04-10 20:25:00,
2013-04-10 16:28:00,55.9,17.7,29.88,SSE,158,3.8,9.6,22,0.00,,---,0.00,VWS V14.00,2013-04-10 20:28:00,
2013-04-10 16:32:00,55.0,17.9,29.88,SSE,158,7.8,13.2,23,0.00,,---,0.00,VWS V14.00,2013-04-10 20:32:00,
2013-04-10 16:33:00,55.0,17.9,29.88,SE,135,6.0,10.5,23,0.00,,---,0.00,VWS V14.00,2013-04-10 20:33:00,
2013-04-10 16:35:00,55.0,19.9,29.88,SE,135,5.4,10.1,25,0.00,,---,0.00,VWS V14.00,2013-04-10 20:35:00,
2013-04-10 16:38:00,55.0,19.9,29.88,SSE,158,7.8,10.3,25,0.00,,---,0.00,VWS V14.00,2013-04-10 20:38:00,
2013-04-10 16:39:00,55.0,19.9,29.88,SSE,158,9.8,12.5,25,0.00,,---,0.00,VWS V14.00,2013-04-10 20:39:00,
2013-04-10 16:41:00,54.9,19.7,29.88,ESE,112,8.1,8.1,25,0.00,,---,0.00,VWS V14.00,2013-04-10 20:41:00,
2013-04-10 16:43:00,54.9,19.7,29.88,ESE,112,7.4,12.3,25,0.00,,---,0.00,VWS V14.00,2013-04-10 20:43:00,
2013-04-10 16:51:00,54.5,20.3,29.88,SSE,158,5.8,5.8,26,0.00,,---,0.00,VWS V14.00,2013-04-10 20:51:00,
2013-04-10 16:52:00,54.5,20.3,29.88,SSE,158,4.3,6.5,26,0.00,,---,0.00,VWS V14.00,2013-04-10 20:52:00,
2013-04-10 16:53:00,54.3,20.2,29.88,SE,135,10.3,12.1,26,0.00,,---,0.00,VWS V14.00,2013-04-10 20:53:00,
2013-04-10 16:55:00,54.3,20.2,29.88,ESE,112,3.8,6.5,26,0.00,,---,0.00,VWS V14.00,2013-04-10 20:55:00,
2013-04-10 16:57:00,54.5,20.3,29.88,SE,135,5.4,5.4,26,0.00,,---,0.00,VWS V14.00,2013-04-10 20:57:00,
2013-04-10 17:02:00,54.5,20.3,29.88,SSE,158,7.6,8.1,26,0.00,,---,0.00,VWS V14.00,2013-04-10 21:02:00,
2013-04-10 17:03:00,54.5,20.3,29.88,SSE,158,8.1,8.7,26,0.00,,---,0.00,VWS V14.00,2013-04-10 21:03:00,
2013-04-10 17:04:00,54.5,20.3,29.85,ESE,112,6.3,8.1,26,0.00,,---,0.00,VWS V14.00,2013-04-10 21:04:00,
2013-04-10 17:06:00,54.9,20.6,29.85,ESE,112,6.3,6.5,26,0.00,,---,0.00,VWS V14.00,2013-04-10 21:06:00,
2013-04-10 17:07:00,55.0,20.8,29.85,East,90,5.8,6.3,26,0.00,,---,0.00,VWS V14.00,2013-04-10 21:07:00,
2013-04-10 17:09:00,55.4,20.2,29.85,ENE,68,3.4,6.0,25,0.00,,---,0.00,VWS V14.00,2013-04-10 21:09:00,
2013-04-10 17:13:00,56.3,21.0,29.85,SE,135,10.1,10.1,25,0.00,,---,0.00,VWS V14.00,2013-04-10 21:13:00,
2013-04-10 17:14:00,55.6,20.3,29.85,ESE,112,6.9,10.3,25,0.00,,---,0.00,VWS V14.00,2013-04-10 21:14:00,
2013-04-10 17:16:00,55.4,20.2,29.85,ESE,112,8.7,10.3,25,0.00,,---,0.00,VWS V14.00,2013-04-10 21:16:00,
2013-04-10 17:21:00,55.0,20.8,29.85,SE,135,4.3,7.6,26,0.00,,---,0.00,VWS V14.00,2013-04-10 21:21:00,
2013-04-10 17:22:00,55.0,20.8,29.85,SSE,158,6.3,7.6,26,0.00,,---,0.00,VWS V14.00,2013-04-10 21:22:00,
2013-04-10 17:23:00,54.9,20.6,29.85,ESE,112,6.0,8.1,26,0.00,,---,0.00,VWS V14.00,2013-04-10 21:23:00,
2013-04-10 17:24:00,54.9,20.6,29.85,ESE,112,7.4,8.7,26,0.00,,---,0.00,VWS V14.00,2013-04-10 21:24:00,
2013-04-10 17:27:00,54.5,20.3,29.85,ESE,112,7.2,7.2,26,0.00,,---,0.00,VWS V14.00,2013-04-10 21:27:00,
2013-04-10 17:30:00,54.3,20.2,29.85,ESE,112,5.6,8.5,26,0.00,,---,0.00,VWS V14.00,2013-04-10 21:30:00,
2013-04-10 17:31:00,54.1,20.0,29.85,SE,135,7.4,7.4,26,0.00,,---,0.00,VWS V14.00,2013-04-10 21:31:00,
2013-04-10 17:37:00,54.3,20.2,29.85,SSE,158,5.6,6.3,26,0.00,,---,0.00,VWS V14.00,2013-04-10 21:37:00,
2013-04-10 17:38:00,54.1,20.0,29.85,SSE,158,5.8,5.8,26,0.00,,---,0.00,VWS V14.00,2013-04-10 21:38:00,
2013-04-10 17:42:00,54.1,20.0,29.85,ESE,112,7.2,7.6,26,0.00,,---,0.00,VWS V14.00,2013-04-10 21:42:00,
2013-04-10 17:43:00,54.0,19.9,29.85,ESE,112,8.7,8.7,26,0.00,,---,0.00,VWS V14.00,2013-04-10 21:43:00,
2013-04-10 17:46:00,54.0,19.9,29.85,SE,135,4.7,5.8,26,0.00,,---,0.00,VWS V14.00,2013-04-10 21:46:00,
2013-04-10 17:49:00,54.0,19.9,29.82,SSE,158,6.5,8.7,26,0.00,,---,0.00,VWS V14.00,2013-04-10 21:49:00,
2013-04-10 17:51:00,53.8,19.7,29.82,ESE,112,7.8,10.3,26,0.00,,---,0.00,VWS V14.00,2013-04-10 21:51:00,
2013-04-10 17:54:00,53.8,19.7,29.82,SE,135,3.6,7.4,26,0.00,,---,0.00,VWS V14.00,2013-04-10 21:54:00,
2013-04-10 17:55:00,53.8,19.7,29.82,SE,135,7.8,7.8,26,0.00,,---,0.00,VWS V14.00,2013-04-10 21:55:00,
2013-04-10 17:58:00,53.8,19.7,29.82,SE,135,7.6,9.8,26,0.00,,---,0.00,VWS V14.00,2013-04-10 21:58:00,
2013-04-10 17:59:00,53.8,19.7,29.82,ESE,112,8.5,8.7,26,0.00,,---,0.00,VWS V14.00,2013-04-10 21:59:00,
2013-04-10 18:01:00,53.6,19.6,29.82,SSE,158,6.5,11.0,26,0.00,,---,0.00,VWS V14.00,2013-04-10 22:01:00,
2013-04-10 18:03:00,53.4,20.3,29.82,ESE,112,5.4,5.4,27,0.00,,---,0.00,VWS V14.00,2013-04-10 22:03:00,
2013-04-10 18:04:00,53.4,20.3,29.85,ESE,112,5.8,5.8,27,0.00,,---,0.00,VWS V14.00,2013-04-10 22:04:00,
2013-04-10 18:06:00,53.4,20.3,29.85,SE,135,7.6,10.7,27,0.00,,---,0.00,VWS V14.00,2013-04-10 22:06:00,
2013-04-10 18:09:00,53.2,20.1,29.85,South,180,6.0,9.6,27,0.00,,---,0.00,VWS V14.00,2013-04-10 22:09:00,
2013-04-10 18:10:00,53.2,20.1,29.85,ESE,112,5.4,6.3,27,0.00,,---,0.00,VWS V14.00,2013-04-10 22:10:00,
2013-04-10 18:11:00,53.2,20.1,29.85,SSE,158,4.9,6.0,27,0.00,,---,0.00,VWS V14.00,2013-04-10 22:11:00,
2013-04-10 18:14:00,53.1,20.0,29.85,SSE,158,6.0,11.0,27,0.00,,---,0.00,VWS V14.00,2013-04-10 22:14:00,
2013-04-10 18:16:00,52.9,19.8,29.85,SSE,158,11.0,11.0,27,0.00,,---,0.00,VWS V14.00,2013-04-10 22:16:00,
2013-04-10 18:19:00,52.7,20.5,29.85,SE,135,6.3,13.2,28,0.00,,---,0.00,VWS V14.00,2013-04-10 22:19:00,
2013-04-10 18:23:00,52.7,20.5,29.85,SSE,158,6.0,10.1,28,0.00,,---,0.00,VWS V14.00,2013-04-10 22:23:00,
2013-04-10 18:24:00,52.7,20.5,29.85,SSE,158,8.5,8.5,28,0.00,,---,0.00,VWS V14.00,2013-04-10 22:24:00,
2013-04-10 18:27:00,52.5,20.4,29.85,SE,135,7.4,7.8,28,0.00,,---,0.00,VWS V14.00,2013-04-10 22:27:00,
2013-04-10 18:28:00,52.5,20.4,29.85,ESE,112,6.0,7.4,28,0.00,,---,0.00,VWS V14.00,2013-04-10 22:28:00,
2013-04-10 18:33:00,52.3,20.2,29.85,SE,135,9.0,9.0,28,0.00,,---,0.00,VWS V14.00,2013-04-10 22:33:00,
2013-04-10 18:36:00,52.5,21.2,29.85,SSE,158,8.1,8.1,29,0.00,,---,0.00,VWS V14.00,2013-04-10 22:36:00,
2013-04-10 18:38:00,52.5,21.2,29.85,SE,135,5.4,7.4,29,0.00,,---,0.00,VWS V14.00,2013-04-10 22:38:00,
2013-04-10 18:43:00,52.5,21.2,29.85,ESE,112,4.7,6.5,29,0.00,,---,0.00,VWS V14.00,2013-04-10 22:43:00,
2013-04-10 18:45:00,52.7,22.2,29.85,SSE,158,3.6,6.0,30,0.00,,---,0.00,VWS V14.00,2013-04-10 22:45:00,
2013-04-10 18:46:00,52.7,22.2,29.85,SE,135,3.6,4.0,30,0.00,,---,0.00,VWS V14.00,2013-04-10 22:46:00,
2013-04-10 18:48:00,52.7,22.2,29.85,SSE,158,3.1,4.9,30,0.00,,---,0.00,VWS V14.00,2013-04-10 22:48:00,
2013-04-10 18:49:00,52.7,22.2,29.82,SSE,158,2.0,3.1,30,0.00,,---,0.00,VWS V14.00,2013-04-10 22:49:00,
2013-04-10 18:52:00,52.7,22.2,29.82,SSW,202,2.9,3.8,30,0.00,,---,0.00,VWS V14.00,2013-04-10 22:52:00,
2013-04-10 18:54:00,52.7,22.2,29.82,SSE,158,3.8,5.4,30,0.00,,---,0.00,VWS V14.00,2013-04-10 22:54:00,
2013-04-10 18:56:00,52.7,22.2,29.82,SSE,158,2.7,3.8,30,0.00,,---,0.00,VWS V14.00,2013-04-10 22:56:00,
2013-04-10 19:00:00,52.9,22.3,29.82,SE,135,3.1,3.6,30,0.00,,---,0.00,VWS V14.00,2013-04-10 23:00:00,
2013-04-10 19:01:00,53.1,23.2,29.82,SSE,158,5.8,6.3,31,0.00,,---,0.00,VWS V14.00,2013-04-10 23:01:00,
2013-04-10 19:04:00,53.1,23.2,29.82,ESE,112,3.6,5.4,31,0.00,,---,0.00,VWS V14.00,2013-04-10 23:04:00,
2013-04-10 19:06:00,53.1,23.2,29.82,SSW,202,4.3,9.8,31,0.00,,---,0.00,VWS V14.00,2013-04-10 23:06:00,
2013-04-10 19:07:00,53.1,23.2,29.82,SSE,158,5.6,5.6,31,0.00,,---,0.00,VWS V14.00,2013-04-10 23:07:00,
2013-04-10 19:11:00,53.2,23.4,29.82,SSE,158,3.6,3.6,31,0.00,,---,0.00,VWS V14.00,2013-04-10 23:11:00,
2013-04-10 19:12:00,53.2,23.4,29.82,SSE,158,5.4,5.4,31,0.00,,---,0.00,VWS V14.00,2013-04-10 23:12:00,
2013-04-10 19:13:00,53.2,24.2,29.82,SE,135,3.4,6.5,32,0.00,,---,0.00,VWS V14.00,2013-04-10 23:13:00,
2013-04-10 19:19:00,53.4,24.3,29.79,SE,135,5.4,8.1,32,0.00,,---,0.00,VWS V14.00,2013-04-10 23:19:00,
2013-04-10 19:21:00,53.4,24.3,29.79,SSW,202,9.0,11.2,32,0.00,,---,0.00,VWS V14.00,2013-04-10 23:21:00,
2013-04-10 19:22:00,53.2,24.2,29.79,SE,135,5.4,9.6,32,0.00,,---,0.00,VWS V14.00,2013-04-10 23:22:00,
2013-04-10 19:25:00,53.4,25.1,29.79,East,90,3.4,9.6,33,0.00,,---,0.00,VWS V14.00,2013-04-10 23:25:00,
2013-04-10 19:27:00,53.4,25.1,29.79,ESE,112,5.4,8.1,33,0.00,,---,0.00,VWS V14.00,2013-04-10 23:27:00,
2013-04-10 19:32:00,53.6,25.2,29.79,SE,135,3.8,3.8,33,0.00,,---,0.00,VWS V14.00,2013-04-10 23:32:00,
2013-04-10 19:33:00,53.8,25.4,29.79,SSE,158,4.3,4.7,33,0.00,,---,0.00,VWS V14.00,2013-04-10 23:33:00,
2013-04-10 19:34:00,53.8,25.4,29.82,SE,135,6.5,7.8,33,0.00,,---,0.00,VWS V14.00,2013-04-10 23:34:00,
2013-04-10 19:38:00,53.6,25.2,29.82,ESE,112,5.4,5.6,33,0.00,,---,0.00,VWS V14.00,2013-04-10 23:38:00,
2013-04-10 19:40:00,53.6,25.2,29.82,ESE,112,2.0,4.9,33,0.00,,---,0.00,VWS V14.00,2013-04-10 23:40:00,
2013-04-10 19:43:00,53.6,25.2,29.82,SSE,158,3.6,5.8,33,0.00,,---,0.00,VWS V14.00,2013-04-10 23:43:00,
2013-04-10 19:46:00,53.6,25.2,29.82,SSE,158,6.3,6.3,33,0.00,,---,0.00,VWS V14.00,2013-04-10 23:46:00,
2013-04-10 19:47:00,53.6,24.5,29.82,East,90,3.1,6.3,32,0.00,,---,0.00,VWS V14.00,2013-04-10 23:47:00,
2013-04-10 19:51:00,53.8,25.4,29.82,North,0,11.0,13.2,33,0.00,,---,0.00,VWS V14.00,2013-04-10 23:51:00,
2013-04-10 19:52:00,54.0,26.2,29.82,NNW,338,14.1,18.8,34,0.00,,---,0.00,VWS V14.00,2013-04-10 23:52:00,
2013-04-10 19:54:00,54.9,27.8,29.82,NNE,22,8.1,17.5,35,0.00,,---,0.00,VWS V14.00,2013-04-10 23:54:00,
2013-04-10 19:57:00,55.2,28.1,29.82,South,180,5.4,14.5,35,0.00,,---,0.00,VWS V14.00,2013-04-10 23:57:00,
2013-04-10 19:58:00,55.6,28.4,29.82,SW,225,2.7,5.6,35,0.00,,---,0.00,VWS V14.00,2013-04-10 23:58:00,
2013-04-10 20:00:00,55.8,27.8,29.82,NNE,22,11.0,12.3,34,0.00,,---,0.00,VWS V14.00,2013-04-11 00:00:00,
2013-04-10 20:04:00,56.3,26.8,29.91,NNE,22,6.0,12.8,32,0.00,,---,0.00,VWS V14.00,2013-04-11 00:04:00,
2013-04-10 20:05:00,56.3,26.8,29.91,NNE,22,6.3,13.0,32,0.00,,---,0.00,VWS V14.00,2013-04-11 00:05:00,
2013-04-10 20:07:00,56.7,26.4,29.91,NNE,22,10.1,12.1,31,0.00,,---,0.00,VWS V14.00,2013-04-11 00:07:00,
2013-04-10 20:10:00,56.8,25.8,29.91,North,0,4.9,8.5,30,0.00,,---,0.00,VWS V14.00,2013-04-11 00:10:00,
2013-04-10 20:11:00,57.0,25.9,29.91,NNE,22,5.8,7.4,30,0.00,,---,0.00,VWS V14.00,2013-04-11 00:11:00,
2013-04-10 20:13:00,57.0,25.9,29.91,NE,45,9.6,9.8,30,0.00,,---,0.00,VWS V14.00,2013-04-11 00:13:00,
2013-04-10 20:17:00,57.2,24.4,29.91,NE,45,7.8,11.9,28,0.00,,---,0.00,VWS V14.00,2013-04-11 00:17:00,
2013-04-10 20:18:00,57.2,24.4,29.91,NNE,22,10.5,12.3,28,0.00,,---,0.00,VWS V14.00,2013-04-11 00:18:00,
2013-04-10 20:19:00,57.2,24.4,29.88,NE,45,6.3,10.5,28,0.00,,---,0.00,VWS V14.00,2013-04-11 00:19:00,
2013-04-10 20:22:00,57.4,24.6,29.88,NNE,22,10.1,10.1,28,0.00,,---,0.00,VWS V14.00,2013-04-11 00:22:00,
2013-04-10 20:23:00,57.6,24.7,29.88,NE,45,5.8,10.1,28,0.00,,---,0.00,VWS V14.00,2013-04-11 00:23:00,
2013-04-10 20:24:00,57.6,24.7,29.88,NE,45,6.5,6.5,28,0.00,,---,0.00,VWS V14.00,2013-04-11 00:24:00,
2013-04-10 20:28:00,57.6,23.9,29.88,NNE,22,8.1,11.2,27,0.00,,---,0.00,VWS V14.00,2013-04-11 00:28:00,
2013-04-10 20:31:00,57.6,23.9,29.88,NNE,22,7.8,10.3,27,0.00,,---,0.00,VWS V14.00,2013-04-11 00:31:00,
2013-04-10 20:32:00,57.6,23.9,29.88,NE,45,3.8,7.8,27,0.00,,---,0.00,VWS V14.00,2013-04-11 00:32:00,
2013-04-10 20:33:00,57.6,23.9,29.88,NE,45,11.2,11.2,27,0.00,,---,0.00,VWS V14.00,2013-04-11 00:33:00,
2013-04-10 20:37:00,57.6,23.9,29.85,NE,45,5.8,10.3,27,0.00,,---,0.00,VWS V14.00,2013-04-11 00:37:00,
2013-04-10 20:38:00,57.6,23.9,29.85,NE,45,7.4,7.6,27,0.00,,---,0.00,VWS V14.00,2013-04-11 00:38:00,
2013-04-10 20:40:00,57.4,23.7,29.85,ENE,68,5.6,8.1,27,0.00,,---,0.00,VWS V14.00,2013-04-11 00:40:00,
2013-04-10 20:42:00,57.2,23.5,29.85,ENE,68,5.8,10.1,27,0.00,,---,0.00,VWS V14.00,2013-04-11 00:42:00,
2013-04-10 20:44:00,57.0,23.4,29.85,East,90,9.8,9.8,27,0.00,,---,0.00,VWS V14.00,2013-04-11 00:44:00,
2013-04-10 20:46:00,56.8,23.2,29.85,NE,45,4.0,5.4,27,0.00,,---,0.00,VWS V14.00,2013-04-11 00:46:00,
2013-04-10 20:48:00,56.7,23.1,29.85,ENE,68,3.6,3.6,27,0.00,,---,0.00,VWS V14.00,2013-04-11 00:48:00,
2013-04-10 20:52:00,56.7,23.1,29.85,ENE,68,4.5,6.0,27,0.00,,---,0.00,VWS V14.00,2013-04-11 00:52:00,
2013-04-10 20:54:00,56.5,22.9,29.85,ENE,68,4.3,7.6,27,0.00,,---,0.00,VWS V14.00,2013-04-11 00:54:00,
2013-04-10 20:57:00,56.5,22.9,29.85,ENE,68,7.8,7.8,27,0.00,,---,0.00,VWS V14.00,2013-04-11 00:57:00,
2013-04-10 20:59:00,56.5,22.9,29.85,East,90,7.6,9.8,27,0.00,,---,0.00,VWS V14.00,2013-04-11 00:59:00,
2013-04-10 21:00:00,56.5,22.9,29.85,NE,45,9.8,9.8,27,0.00,,---,0.00,VWS V14.00,2013-04-11 01:00:00,
2013-04-10 21:02:00,56.5,22.9,29.85,North,0,6.3,10.1,27,0.00,,---,0.00,VWS V14.00,2013-04-11 01:02:00,
2013-04-10 21:03:00,56.5,22.9,29.85,North,0,9.6,9.6,27,0.00,,---,0.00,VWS V14.00,2013-04-11 01:03:00,
2013-04-10 21:05:00,56.7,23.1,29.91,North,0,10.7,14.5,27,0.00,,---,0.00,VWS V14.00,2013-04-11 01:05:00,
2013-04-10 21:09:00,57.0,23.4,29.91,ENE,68,4.3,5.6,27,0.00,,---,0.00,VWS V14.00,2013-04-11 01:09:00,
2013-04-10 21:11:00,57.0,23.4,29.91,NE,45,4.7,6.5,27,0.00,,---,0.00,VWS V14.00,2013-04-11 01:11:00,
2013-04-10 21:16:00,56.8,23.2,29.91,West,270,2.5,4.7,27,0.00,,---,0.00,VWS V14.00,2013-04-11 01:16:00,
2013-04-10 21:18:00,56.8,23.2,29.91,West,270,3.6,3.6,27,0.00,,---,0.00,VWS V14.00,2013-04-11 01:18:00,
2013-04-10 21:22:00,56.5,22.9,29.91,WNW,292,2.9,2.9,27,0.00,,---,0.00,VWS V14.00,2013-04-11 01:22:00,
2013-04-10 21:23:00,56.3,22.8,29.91,WNW,292,2.9,3.1,27,0.00,,---,0.00,VWS V14.00,2013-04-11 01:23:00,
2013-04-10 21:27:00,56.3,22.8,29.91,ESE,112,0.9,2.9,27,0.00,,---,0.00,VWS V14.00,2013-04-11 01:27:00,
2013-04-10 21:28:00,56.3,23.6,29.91,SE,135,2.7,2.7,28,0.00,,---,0.00,VWS V14.00,2013-04-11 01:28:00,
2013-04-10 21:33:00,56.3,25.3,29.91,SE,135,2.7,3.8,30,0.00,,---,0.00,VWS V14.00,2013-04-11 01:33:00,
2013-04-10 21:35:00,56.3,26.1,29.91,ESE,112,5.4,5.4,31,0.00,,---,0.00,VWS V14.00,2013-04-11 01:35:00,
2013-04-10 21:37:00,56.3,26.8,29.91,SE,135,13.2,13.2,32,0.00,,---,0.00,VWS V14.00,2013-04-11 01:37:00,
2013-04-10 21:39:00,56.1,27.4,29.91,SSE,158,10.1,10.7,33,0.00,,---,0.00,VWS V14.00,2013-04-11 01:39:00,
2013-04-10 21:40:00,55.9,27.3,29.91,SE,135,12.5,12.5,33,0.00,,---,0.00,VWS V14.00,2013-04-11 01:40:00,
2013-04-10 21:45:00,55.6,27.7,29.91,SE,135,8.7,13.0,34,0.00,,---,0.00,VWS V14.00,2013-04-11 01:45:00,
2013-04-10 21:46:00,55.6,27.7,29.91,ESE,112,7.8,9.8,34,0.00,,---,0.00,VWS V14.00,2013-04-11 01:46:00,
2013-04-10 21:47:00,55.4,27.5,29.91,SE,135,14.5,15.4,34,0.00,,---,0.00,VWS V14.00,2013-04-11 01:47:00,
2013-04-10 21:48:00,55.2,27.4,29.91,SSE,158,10.3,14.5,34,0.00,,---,0.00,VWS V14.00,2013-04-11 01:48:00,
2013-04-10 21:52:00,55.2,28.1,29.82,SE,135,9.8,12.5,35,0.00,,---,0.00,VWS V14.00,2013-04-11 01:52:00,
2013-04-10 21:54:00,55.0,27.9,29.82,SE,135,15.7,15.7,35,0.00,,---,0.00,VWS V14.00,2013-04-11 01:54:00,
2013-04-10 21:58:00,55.2,28.1,29.82,SE,135,7.8,10.3,35,0.00,,---,0.00,VWS V14.00,2013-04-11 01:58:00,
2013-04-10 21:59:00,55.0,27.9,29.82,SE,135,10.1,17.2,35,0.00,,---,0.00,VWS V14.00,2013-04-11 01:59:00,
2013-04-10 22:00:00,55.0,27.9,29.82,South,180,7.8,19.0,35,0.00,,---,0.00,VWS V14.00,2013-04-11 02:00:00,
2013-04-10 22:02:00,55.0,27.9,29.82,SE,135,15.2,16.1,35,0.00,,---,0.00,VWS V14.00,2013-04-11 02:02:00,
2013-04-10 22:04:00,55.2,28.1,29.79,SSE,158,17.7,17.7,35,0.00,,---,0.00,VWS V14.00,2013-04-11 02:04:00,
2013-04-10 22:08:00,54.9,27.8,29.79,SSE,158,13.2,19.5,35,0.00,,---,0.00,VWS V14.00,2013-04-11 02:08:00,
2013-04-10 22:11:00,54.7,27.6,29.79,SSE,158,14.8,14.8,35,0.00,,---,0.00,VWS V14.00,2013-04-11 02:11:00,
2013-04-10 22:12:00,54.7,27.6,29.79,South,180,10.1,14.8,35,0.00,,---,0.00,VWS V14.00,2013-04-11 02:12:00,
2013-04-10 22:13:00,54.5,27.4,29.79,SSE,158,10.3,10.3,35,0.00,,---,0.00,VWS V14.00,2013-04-11 02:13:00,
2013-04-10 22:16:00,54.7,27.6,29.79,SSE,158,8.7,11.0,35,0.00,,---,0.00,VWS V14.00,2013-04-11 02:16:00,
2013-04-10 22:17:00,54.7,27.6,29.79,SSE,158,10.7,10.7,35,0.00,,---,0.00,VWS V14.00,2013-04-11 02:17:00,
2013-04-10 22:18:00,54.7,27.6,29.79,SSW,202,7.8,12.3,35,0.00,,---,0.00,VWS V14.00,2013-04-11 02:18:00,
2013-04-10 22:19:00,54.7,27.6,29.79,SE,135,11.0,14.8,35,0.00,,---,0.00,VWS V14.00,2013-04-11 02:19:00,
2013-04-10 22:22:00,54.9,27.8,29.79,ESE,112,7.8,10.3,35,0.00,,---,0.00,VWS V14.00,2013-04-11 02:22:00,
2013-04-10 22:24:00,54.9,27.8,29.79,SSE,158,9.6,9.6,35,0.00,,---,0.00,VWS V14.00,2013-04-11 02:24:00,
2013-04-10 22:28:00,54.9,27.8,29.79,SE,135,5.8,13.0,35,0.00,,---,0.00,VWS V14.00,2013-04-11 02:28:00,
2013-04-10 22:29:00,54.9,27.8,29.79,SSE,158,7.8,10.5,35,0.00,,---,0.00,VWS V14.00,2013-04-11 02:29:00,
2013-04-10 22:32:00,55.0,27.9,29.79,SE,135,12.3,12.3,35,0.00,,---,0.00,VWS V14.00,2013-04-11 02:32:00,
2013-04-10 22:34:00,55.2,28.8,29.79,South,180,8.5,10.1,36,0.00,,---,0.00,VWS V14.00,2013-04-11 02:34:00,
2013-04-10 22:35:00,55.2,28.8,29.79,South,180,5.4,11.4,36,0.00,,---,0.00,VWS V14.00,2013-04-11 02:35:00,
2013-04-10 22:39:00,55.2,28.1,29.79,South,180,7.8,7.8,35,0.00,,---,0.00,VWS V14.00,2013-04-11 02:39:00,
2013-04-10 22:41:00,55.2,28.1,29.79,SSE,158,6.3,6.3,35,0.00,,---,0.00,VWS V14.00,2013-04-11 02:41:00,
2013-04-10 22:45:00,55.9,28.7,29.79,North,0,10.5,15.7,35,0.00,,---,0.00,VWS V14.00,2013-04-11 02:45:00,
2013-04-10 22:46:00,57.2,30.5,29.79,NNW,338,10.5,15.2,36,0.00,,---,0.00,VWS V14.00,2013-04-11 02:46:00,
2013-04-10 22:47:00,57.6,30.8,29.79,WNW,292,12.8,14.1,36,0.00,,---,0.00,VWS V14.00,2013-04-11 02:47:00,
2013-04-10 22:48:00,57.6,30.8,29.79,WSW,248,4.9,12.8,36,0.00,,---,0.00,VWS V14.00,2013-04-11 02:48:00,
2013-04-10 22:50:00,58.1,32.0,29.88,WNW,292,4.3,8.5,37,0.00,,---,0.00,VWS V14.00,2013-04-11 02:50:00,
2013-04-10 22:51:00,58.5,32.3,29.88,NW,315,7.4,8.7,37,0.00,,---,0.00,VWS V14.00,2013-04-11 02:51:00,
2013-04-10 22:53:00,59.2,33.0,29.88,NNW,338,7.6,7.6,37,0.00,,---,0.00,VWS V14.00,2013-04-11 02:53:00,
2013-04-10 22:54:00,59.4,33.8,29.88,NNE,22,5.4,7.6,38,0.00,,---,0.00,VWS V14.00,2013-04-11 02:54:00,
2013-04-10 22:58:00,60.4,34.7,29.88,WNW,292,5.6,5.6,38,0.00,,---,0.00,VWS V14.00,2013-04-11 02:58:00,
2013-04-10 22:59:00,60.6,34.9,29.88,NNW,338,4.9,5.6,38,0.00,,---,0.00,VWS V14.00,2013-04-11 02:59:00,
2013-04-10 23:01:00,61.0,35.2,29.88,NNW,338,6.5,7.2,38,0.00,,---,0.00,VWS V14.00,2013-04-11 03:01:00,
2013-04-10 23:06:00,61.7,35.2,29.91,NE,45,4.0,4.3,37,0.00,,---,0.00,VWS V14.00,2013-04-11 03:06:00,
2013-04-10 23:07:00,61.9,35.3,29.91,WNW,292,3.4,5.4,37,0.00,,---,0.00,VWS V14.00,2013-04-11 03:07:00,
2013-04-10 23:08:00,61.9,35.3,29.91,NW,315,5.4,5.4,37,0.00,,---,0.00,VWS V14.00,2013-04-11 03:08:00,
2013-04-10 23:12:00,62.2,35.7,29.91,WNW,292,2.7,4.0,37,0.00,,---,0.00,VWS V14.00,2013-04-11 03:12:00,
2013-04-10 23:13:00,62.4,35.8,29.91,WNW,292,5.6,5.8,37,0.00,,---,0.00,VWS V14.00,2013-04-11 03:13:00,
2013-04-10 23:15:00,62.6,35.3,29.91,NW,315,3.4,4.7,36,0.00,,---,0.00,VWS V14.00,2013-04-11 03:15:00,
2013-04-10 23:17:00,62.6,35.3,29.91,WNW,292,4.9,5.4,36,0.00,,---,0.00,VWS V14.00,2013-04-11 03:17:00,
2013-04-10 23:18:00,62.8,35.5,29.91,NW,315,4.3,5.6,36,0.00,,---,0.00,VWS V14.00,2013-04-11 03:18:00,
2013-04-10 23:22:00,62.8,35.5,29.91,NNW,338,0.0,2.2,36,0.00,,---,0.00,VWS V14.00,2013-04-11 03:22:00,
2013-04-10 23:24:00,62.8,34.8,29.91,ENE,68,1.6,1.6,35,0.00,,---,0.00,VWS V14.00,2013-04-11 03:24:00,
2013-04-10 23:27:00,63.0,34.9,29.91,WNW,292,0.0,0.0,35,0.00,,---,0.00,VWS V14.00,2013-04-11 03:27:00,
2013-04-10 23:28:00,63.0,34.9,29.91,WNW,292,2.5,2.7,35,0.00,,---,0.00,VWS V14.00,2013-04-11 03:28:00,
2013-04-10 23:29:00,63.0,34.9,29.91,WNW,292,3.4,3.4,35,0.00,,---,0.00,VWS V14.00,2013-04-11 03:29:00,
2013-04-10 23:30:00,63.0,34.9,29.91,West,270,1.6,3.4,35,0.00,,---,0.00,VWS V14.00,2013-04-11 03:30:00,
2013-04-10 23:33:00,63.0,34.9,29.91,WNW,292,0.0,0.0,35,0.00,,---,0.00,VWS V14.00,2013-04-11 03:33:00,
2013-04-10 23:34:00,63.0,34.9,29.91,WNW,292,0.0,0.0,35,0.00,,---,0.00,VWS V14.00,2013-04-11 03:34:00,
2013-04-10 23:35:00,63.1,35.1,29.91,WNW,292,1.6,2.0,35,0.00,,---,0.00,VWS V14.00,2013-04-11 03:35:00,
2013-04-10 23:40:00,63.1,35.1,29.91,WNW,292,2.5,2.7,35,0.00,,---,0.00,VWS V14.00,2013-04-11 03:40:00,
2013-04-10 23:41:00,63.1,35.1,29.91,WNW,292,1.1,2.5,35,0.00,,---,0.00,VWS V14.00,2013-04-11 03:41:00,
2013-04-10 23:43:00,63.1,35.1,29.91,WNW,292,0.0,2.9,35,0.00,,---,0.00,VWS V14.00,2013-04-11 03:43:00,
2013-04-10 23:45:00,63.1,35.1,29.91,NW,315,0.0,0.0,35,0.00,,---,0.00,VWS V14.00,2013-04-11 03:45:00,
2013-04-10 23:47:00,63.1,35.1,29.91,WSW,248,0.0,0.0,35,0.00,,---,0.00,VWS V14.00,2013-04-11 03:47:00,
2013-04-10 23:50:00,63.1,35.1,29.91,WSW,248,0.0,0.0,35,0.00,,---,0.00,VWS V14.00,2013-04-11 03:50:00,
2013-04-10 23:54:00,63.3,35.2,29.91,SSW,202,0.0,0.0,35,0.00,,---,0.00,VWS V14.00,2013-04-11 03:54:00,
2013-04-10 23:55:00,63.1,35.1,29.91,SSE,158,0.0,0.0,35,0.00,,---,0.00,VWS V14.00,2013-04-11 03:55:00,
2013-04-10 23:59:00,63.1,35.1,29.91,SE,135,1.3,1.6,35,0.00,,---,0.00,VWS V14.00,2013-04-11 03:59:00,